Wetterdaten: Mittwoch, 15.02.2023
Datum Zeit Temp. Aussen Temp. o. S. Temp +5cm Feuchte Auss Luftdruck Regen Sonnenschein Regendauer Solar Windben Empfang
15.02.2023 00:00 3,8 C 2,8 C 0,0 C 89 % 1030,1 hPa 0,0 l/m 0 min 0 min 0 W/m 12,9 km/h (3 Bft) 97,87 %
15.02.2023 00:02 3,8 C 2,8 C 0,0 C 89 % 1030,2 hPa 0,0 l/m 0 min 0 min 0 W/m 6,4 km/h (2 Bft) 94,44 %
15.02.2023 00:04 3,8 C 2,8 C 0,0 C 89 % 1030,1 hPa 0,0 l/m 0 min 0 min 0 W/m 6,4 km/h (2 Bft) 97,87 %
15.02.2023 00:07 3,7 C 2,8 C -0,6 C 90 % 1030,1 hPa 0,0 l/m 0 min 0 min 0 W/m 6,4 km/h (2 Bft) 94,81 %
15.02.2023 00:10 3,7 C 2,8 C -0,6 C 90 % 1030,2 hPa 0,0 l/m 0 min 0 min 0 W/m 12,9 km/h (3 Bft) 98,44 %
15.02.2023 00:12 3,7 C 2,8 C -0,6 C 90 % 1030,1 hPa 0,0 l/m 0 min 0 min 0 W/m 12,9 km/h (3 Bft) 60,00 %
15.02.2023 00:14 3,6 C 2,8 C -0,6 C 90 % 1030,1 hPa 0,0 l/m 0 min 0 min 0 W/m 19,3 km/h (3 Bft) 97,83 %
15.02.2023 00:16 3,6 C 2,8 C -0,6 C 90 % 1030,1 hPa 0,0 l/m 0 min 0 min 0 W/m 9,7 km/h (2 Bft) 97,73 %
15.02.2023 00:18 3,6 C 2,8 C -0,6 C 90 % 1030,1 hPa 0,0 l/m 0 min 0 min 0 W/m 12,9 km/h (3 Bft) 100,00 %
15.02.2023 00:20 3,6 C 2,8 C -0,6 C 90 % 1030,1 hPa 0,0 l/m 0 min 0 min 0 W/m 3,2 km/h (1 Bft) 100,00 %
15.02.2023 00:22 3,6 C 2,8 C -0,6 C 90 % 1030,1 hPa 0,0 l/m 0 min 0 min 0 W/m 6,4 km/h (2 Bft) 100,00 %
15.02.2023 00:24 3,5 C 2,8 C -0,6 C 90 % 1030,0 hPa 0,0 l/m 0 min 0 min 0 W/m 19,3 km/h (3 Bft) 97,87 %
15.02.2023 00:26 3,5 C 2,8 C -0,6 C 90 % 1030,0 hPa 0,0 l/m 0 min 0 min 0 W/m 16,1 km/h (3 Bft) 100,00 %
15.02.2023 00:28 3,5 C 2,8 C -0,6 C 90 % 1030,0 hPa 0,0 l/m 0 min 0 min 0 W/m 12,9 km/h (3 Bft) 100,00 %
15.02.2023 00:30 3,4 C 2,8 C -0,6 C 90 % 1030,0 hPa 0,0 l/m 0 min 0 min 0 W/m 16,1 km/h (3 Bft) 97,87 %
15.02.2023 00:32 3,4 C 2,8 C -0,6 C 90 % 1030,0 hPa 0,0 l/m 0 min 0 min 0 W/m 12,9 km/h (3 Bft) 95,74 %
15.02.2023 00:34 3,4 C 2,8 C -0,6 C 90 % 1030,0 hPa 0,0 l/m 0 min 0 min 0 W/m 19,3 km/h (3 Bft) 97,87 %
15.02.2023 00:36 3,4 C 2,8 C -0,6 C 90 % 1030,0 hPa 0,0 l/m 0 min 0 min 0 W/m 12,9 km/h (3 Bft) 97,87 %
15.02.2023 00:38 3,3 C 2,8 C -0,6 C 90 % 1030,0 hPa 0,0 l/m 0 min 0 min 0 W/m 6,4 km/h (2 Bft) 95,74 %
15.02.2023 00:40 3,3 C 2,2 C -0,6 C 90 % 1030,0 hPa 0,0 l/m 0 min 0 min 0 W/m 16,1 km/h (3 Bft) 93,62 %
15.02.2023 00:42 3,3 C 2,2 C -0,6 C 90 % 1030,0 hPa 0,0 l/m 0 min 0 min 0 W/m 12,9 km/h (3 Bft) 97,83 %
15.02.2023 00:44 3,3 C 2,2 C -0,6 C 90 % 1030,0 hPa 0,0 l/m 0 min 0 min 0 W/m 9,7 km/h (2 Bft) 97,87 %
15.02.2023 00:46 3,3 C 2,2 C -0,6 C 90 % 1030,1 hPa 0,0 l/m 0 min 0 min 0 W/m 16,1 km/h (3 Bft) 98,15 %
15.02.2023 00:48 3,3 C 2,2 C -0,6 C 90 % 1030,0 hPa 0,0 l/m 0 min 0 min 0 W/m 12,9 km/h (3 Bft) 97,87 %
15.02.2023 00:50 3,2 C 2,2 C -0,6 C 90 % 1029,9 hPa 0,0 l/m 0 min 0 min 0 W/m 16,1 km/h (3 Bft) 95,74 %
15.02.2023 00:52 3,2 C 2,2 C -0,6 C 91 % 1030,0 hPa 0,0 l/m 0 min 0 min 0 W/m 19,3 km/h (3 Bft) 97,87 %
15.02.2023 00:54 3,2 C 2,2 C -0,6 C 91 % 1029,9 hPa 0,0 l/m 0 min 0 min 0 W/m 12,9 km/h (3 Bft) 91,30 %
15.02.2023 00:56 3,2 C 2,2 C -0,6 C 91 % 1029,9 hPa 0,0 l/m 0 min 0 min 0 W/m 16,1 km/h (3 Bft) 93,62 %
15.02.2023 00:58 3,2 C 2,2 C -0,6 C 90 % 1029,9 hPa 0,0 l/m 0 min 0 min 0 W/m 12,9 km/h (3 Bft) 95,74 %
15.02.2023 01:00 3,2 C 2,2 C -0,6 C 91 % 1030,0 hPa 0,0 l/m 0 min 0 min 0 W/m 12,9 km/h (3 Bft) 91,49 %
15.02.2023 01:02 3,1 C 2,2 C -0,6 C 91 % 1030,0 hPa 0,0 l/m 0 min 0 min 0 W/m 16,1 km/h (3 Bft) 93,62 %
15.02.2023 01:04 3,1 C 2,2 C -0,6 C 91 % 1029,9 hPa 0,0 l/m 0 min 0 min 0 W/m 16,1 km/h (3 Bft) 95,74 %
15.02.2023 01:06 3,1 C 2,2 C -0,6 C 91 % 1029,9 hPa 0,0 l/m 0 min 0 min 0 W/m 12,9 km/h (3 Bft) 97,83 %
15.02.2023 01:08 3,1 C 2,2 C -0,6 C 91 % 1029,9 hPa 0,0 l/m 0 min 0 min 0 W/m 6,4 km/h (2 Bft) 95,74 %
15.02.2023 01:10 3,1 C 2,2 C -0,6 C 91 % 1029,8 hPa 0,0 l/m 0 min 0 min 0 W/m 16,1 km/h (3 Bft) 95,74 %
15.02.2023 01:12 3,1 C 2,2 C -0,6 C 91 % 1029,8 hPa 0,0 l/m 0 min 0 min 0 W/m 16,1 km/h (3 Bft) 95,74 %
15.02.2023 01:14 3,1 C 2,2 C -0,6 C 91 % 1029,8 hPa 0,0 l/m 0 min 0 min 0 W/m 16,1 km/h (3 Bft) 95,74 %
15.02.2023 01:16 3,1 C 2,2 C -0,6 C 91 % 1029,8 hPa 0,0 l/m 0 min 0 min 0 W/m 16,1 km/h (3 Bft) 97,87 %
15.02.2023 01:18 3,1 C 2,2 C -0,6 C 91 % 1029,7 hPa 0,0 l/m 0 min 0 min 0 W/m 16,1 km/h (3 Bft) 97,87 %
15.02.2023 01:20 3,1 C 2,2 C -0,6 C 91 % 1029,8 hPa 0,0 l/m 0 min 0 min 0 W/m 12,9 km/h (3 Bft) 97,83 %
15.02.2023 01:22 3,0 C 2,2 C -1,1 C 91 % 1029,7 hPa 0,0 l/m 0 min 0 min 0 W/m 12,9 km/h (3 Bft) 97,87 %
15.02.2023 01:24 3,0 C 2,2 C -1,1 C 91 % 1029,7 hPa 0,0 l/m 0 min 0 min 0 W/m 22,5 km/h (4 Bft) 97,87 %
15.02.2023 01:26 3,0 C 2,2 C -1,1 C 91 % 1029,7 hPa 0,0 l/m 0 min 0 min 0 W/m 16,1 km/h (3 Bft) 97,87 %
15.02.2023 01:28 2,9 C 2,2 C -1,1 C 91 % 1029,7 hPa 0,0 l/m 0 min 0 min 0 W/m 19,3 km/h (3 Bft) 94,44 %
15.02.2023 01:30 2,9 C 2,2 C -1,1 C 91 % 1029,7 hPa 0,0 l/m 0 min 0 min 0 W/m 12,9 km/h (3 Bft) 98,00 %
15.02.2023 01:32 2,9 C 2,2 C -1,1 C 91 % 1029,7 hPa 0,0 l/m 0 min 0 min 0 W/m 12,9 km/h (3 Bft) 93,62 %
15.02.2023 01:34 2,9 C 2,2 C -1,1 C 91 % 1029,6 hPa 0,0 l/m 0 min 0 min 0 W/m 16,1 km/h (3 Bft) 97,87 %
15.02.2023 01:36 2,9 C 2,2 C -1,1 C 91 % 1029,6 hPa 0,0 l/m 0 min 0 min 0 W/m 12,9 km/h (3 Bft) 93,48 %
15.02.2023 01:38 2,9 C 2,2 C -1,1 C 91 % 1029,6 hPa 0,0 l/m 0 min 0 min 0 W/m 16,1 km/h (3 Bft) 91,67 %
15.02.2023 01:40 2,9 C 2,2 C -1,1 C 91 % 1029,6 hPa 0,0 l/m 0 min 0 min 0 W/m 12,9 km/h (3 Bft) 97,30 %
15.02.2023 01:42 2,8 C 2,2 C -1,1 C 91 % 1029,6 hPa 0,0 l/m 0 min 0 min 0 W/m 12,9 km/h (3 Bft) 96,61 %
15.02.2023 01:44 2,8 C 2,2 C -1,1 C 91 % 1029,6 hPa 0,0 l/m 0 min 0 min 0 W/m 19,3 km/h (3 Bft) 97,14 %
15.02.2023 01:46 2,8 C 2,2 C -1,1 C 91 % 1029,6 hPa 0,0 l/m 0 min 0 min 0 W/m 12,9 km/h (3 Bft) 93,62 %
15.02.2023 01:48 2,8 C 2,2 C -1,1 C 91 % 1029,6 hPa 0,0 l/m 0 min 0 min 0 W/m 16,1 km/h (3 Bft) 98,15 %
15.02.2023 01:50 2,8 C 2,2 C -1,1 C 91 % 1029,5 hPa 0,0 l/m 0 min 0 min 0 W/m 12,9 km/h (3 Bft) 98,00 %
15.02.2023 01:52 2,8 C 2,2 C -1,1 C 91 % 1029,6 hPa 0,0 l/m 0 min 0 min 0 W/m 16,1 km/h (3 Bft) 95,74 %
15.02.2023 01:54 2,7 C 2,2 C -1,1 C 91 % 1029,5 hPa 0,0 l/m 0 min 0 min 0 W/m 12,9 km/h (3 Bft) 95,74 %
15.02.2023 01:56 2,7 C 2,2 C -1,1 C 91 % 1029,6 hPa 0,0 l/m 0 min 0 min 0 W/m 12,9 km/h (3 Bft) 85,11 %
15.02.2023 01:58 2,7 C 1,7 C -1,1 C 91 % 1029,6 hPa 0,0 l/m 0 min 0 min 0 W/m 12,9 km/h (3 Bft) 61,90 %
15.02.2023 02:00 2,7 C 1,7 C -1,1 C 91 % 1029,6 hPa 0,0 l/m 0 min 0 min 0 W/m 12,9 km/h (3 Bft) 95,74 %
15.02.2023 02:02 2,7 C 1,7 C -1,1 C 91 % 1029,6 hPa 0,0 l/m 0 min 0 min 0 W/m 12,9 km/h (3 Bft) 91,84 %
15.02.2023 02:04 2,7 C 1,7 C -1,1 C 91 % 1029,6 hPa 0,0 l/m 0 min 0 min 0 W/m 16,1 km/h (3 Bft) 93,48 %
15.02.2023 02:06 2,7 C 1,7 C -1,1 C 91 % 1029,6 hPa 0,0 l/m 0 min 0 min 0 W/m 16,1 km/h (3 Bft) 96,00 %
15.02.2023 02:08 2,6 C 1,7 C -1,1 C 91 % 1029,7 hPa 0,0 l/m 0 min 0 min 0 W/m 16,1 km/h (3 Bft) 95,74 %
15.02.2023 02:10 2,6 C 1,7 C -1,1 C 91 % 1029,7 hPa 0,0 l/m 0 min 0 min 0 W/m 12,9 km/h (3 Bft) 97,22 %
15.02.2023 02:12 2,6 C 1,7 C -1,1 C 91 % 1029,6 hPa 0,0 l/m 0 min 0 min 0 W/m 12,9 km/h (3 Bft) 97,87 %
15.02.2023 02:14 2,6 C 1,7 C -1,1 C 91 % 1029,6 hPa 0,0 l/m 0 min 0 min 0 W/m 19,3 km/h (3 Bft) 95,74 %
15.02.2023 02:16 2,6 C 1,7 C -1,1 C 91 % 1029,6 hPa 0,0 l/m 0 min 0 min 0 W/m 12,9 km/h (3 Bft) 95,74 %
15.02.2023 02:18 2,6 C 1,7 C -1,1 C 91 % 1029,6 hPa 0,0 l/m 0 min 0 min 0 W/m 16,1 km/h (3 Bft) 93,62 %
15.02.2023 02:20 2,6 C 1,7 C -1,1 C 91 % 1029,5 hPa 0,0 l/m 0 min 0 min 0 W/m 12,9 km/h (3 Bft) 93,48 %
15.02.2023 02:22 2,5 C 1,7 C -1,1 C 91 % 1029,6 hPa 0,0 l/m 0 min 0 min 0 W/m 12,9 km/h (3 Bft) 91,49 %
15.02.2023 02:24 2,5 C 1,7 C -1,1 C 92 % 1029,5 hPa 0,0 l/m 0 min 0 min 0 W/m 9,7 km/h (2 Bft) 93,62 %
15.02.2023 02:26 2,5 C 1,7 C -1,1 C 92 % 1029,5 hPa 0,0 l/m 0 min 0 min 0 W/m 12,9 km/h (3 Bft) 95,74 %
15.02.2023 02:28 2,4 C 1,7 C -1,1 C 92 % 1029,6 hPa 0,0 l/m 0 min 0 min 0 W/m 16,1 km/h (3 Bft) 91,49 %
15.02.2023 02:30 2,4 C 1,7 C -1,1 C 92 % 1029,6 hPa 0,0 l/m 0 min 0 min 0 W/m 12,9 km/h (3 Bft) 87,23 %
15.02.2023 02:32 2,4 C 1,7 C -1,1 C 92 % 1029,5 hPa 0,0 l/m 0 min 0 min 0 W/m 12,9 km/h (3 Bft) 93,62 %
15.02.2023 02:34 2,4 C 1,7 C -1,1 C 92 % 1029,5 hPa 0,0 l/m 0 min 0 min 0 W/m 16,1 km/h (3 Bft) 97,83 %
15.02.2023 02:36 2,4 C 1,7 C -1,1 C 92 % 1029,5 hPa 0,0 l/m 0 min 0 min 0 W/m 12,9 km/h (3 Bft) 97,87 %
15.02.2023 02:38 2,4 C 1,7 C -1,1 C 92 % 1029,5 hPa 0,0 l/m 0 min 0 min 0 W/m 12,9 km/h (3 Bft) 89,36 %
15.02.2023 02:40 2,4 C 1,7 C -1,1 C 92 % 1029,4 hPa 0,0 l/m 0 min 0 min 0 W/m 22,5 km/h (4 Bft) 95,83 %
15.02.2023 02:42 2,4 C 1,7 C -1,1 C 92 % 1029,4 hPa 0,0 l/m 0 min 0 min 0 W/m 19,3 km/h (3 Bft) 93,62 %
15.02.2023 02:44 2,4 C 1,7 C -1,1 C 92 % 1029,4 hPa 0,0 l/m 0 min 0 min 0 W/m 12,9 km/h (3 Bft) 97,87 %
15.02.2023 02:46 2,4 C 1,7 C -1,1 C 92 % 1029,4 hPa 0,0 l/m 0 min 0 min 0 W/m 9,7 km/h (2 Bft) 97,83 %
15.02.2023 02:48 2,4 C 1,7 C -1,1 C 92 % 1029,4 hPa 0,0 l/m 0 min 0 min 0 W/m 12,9 km/h (3 Bft) 100,00 %
15.02.2023 02:50 2,3 C 1,7 C -1,7 C 92 % 1029,4 hPa 0,0 l/m 0 min 0 min 0 W/m 9,7 km/h (2 Bft) 97,87 %
15.02.2023 02:52 2,3 C 1,7 C -1,7 C 92 % 1029,3 hPa 0,0 l/m 0 min 0 min 0 W/m 9,7 km/h (2 Bft) 100,00 %
15.02.2023 02:54 2,3 C 1,7 C -1,7 C 92 % 1029,3 hPa 0,0 l/m 0 min 0 min 0 W/m 12,9 km/h (3 Bft) 100,00 %
15.02.2023 02:56 2,3 C 1,7 C -1,7 C 92 % 1029,3 hPa 0,0 l/m 0 min 0 min 0 W/m 16,1 km/h (3 Bft) 100,00 %
15.02.2023 02:58 2,3 C 1,7 C -1,7 C 92 % 1029,2 hPa 0,0 l/m 0 min 0 min 0 W/m 22,5 km/h (4 Bft) 97,92 %
15.02.2023 03:00 2,3 C 1,7 C -1,7 C 92 % 1029,2 hPa 0,0 l/m 0 min 0 min 0 W/m 19,3 km/h (3 Bft) 100,00 %
15.02.2023 03:02 2,3 C 1,7 C -1,7 C 92 % 1029,2 hPa 0,0 l/m 0 min 0 min 0 W/m 16,1 km/h (3 Bft) 100,00 %
15.02.2023 03:04 2,3 C 1,7 C -1,7 C 92 % 1029,2 hPa 0,0 l/m 0 min 0 min 0 W/m 16,1 km/h (3 Bft) 100,00 %
15.02.2023 03:06 2,2 C 1,7 C -1,7 C 92 % 1029,2 hPa 0,0 l/m 0 min 0 min 0 W/m 9,7 km/h (2 Bft) 98,11 %
15.02.2023 03:08 2,2 C 1,7 C -1,7 C 92 % 1029,2 hPa 0,0 l/m 0 min 0 min 0 W/m 9,7 km/h (2 Bft) 95,45 %
15.02.2023 03:10 2,2 C 1,7 C -1,7 C 92 % 1029,2 hPa 0,0 l/m 0 min 0 min 0 W/m 12,9 km/h (3 Bft) 95,74 %
15.02.2023 03:12 2,2 C 1,7 C -1,7 C 92 % 1029,2 hPa 0,0 l/m 0 min 0 min 0 W/m 16,1 km/h (3 Bft) 100,00 %
15.02.2023 03:14 2,2 C 1,1 C -1,7 C 92 % 1029,1 hPa 0,0 l/m 0 min 0 min 0 W/m 12,9 km/h (3 Bft) 100,00 %
15.02.2023 03:16 2,2 C 1,1 C -1,7 C 92 % 1029,1 hPa 0,0 l/m 0 min 0 min 0 W/m 12,9 km/h (3 Bft) 100,00 %
15.02.2023 03:18 2,2 C 1,1 C -1,7 C 92 % 1029,1 hPa 0,0 l/m 0 min 0 min 0 W/m 6,4 km/h (2 Bft) 100,00 %
15.02.2023 03:20 2,2 C 1,1 C -1,7 C 92 % 1029,1 hPa 0,0 l/m 0 min 0 min 0 W/m 12,9 km/h (3 Bft) 100,00 %
15.02.2023 03:22 2,1 C 1,1 C -1,7 C 92 % 1029,1 hPa 0,0 l/m 0 min 0 min 0 W/m 12,9 km/h (3 Bft) 100,00 %
15.02.2023 03:24 2,1 C 1,1 C -1,7 C 92 % 1029,0 hPa 0,0 l/m 0 min 0 min 0 W/m 6,4 km/h (2 Bft) 97,87 %
15.02.2023 03:26 2,1 C 1,1 C -1,7 C 92 % 1029,0 hPa 0,0 l/m 0 min 0 min 0 W/m 12,9 km/h (3 Bft) 100,00 %
15.02.2023 03:28 2,1 C 1,1 C -1,7 C 92 % 1029,0 hPa 0,0 l/m 0 min 0 min 0 W/m 12,9 km/h (3 Bft) 100,00 %
15.02.2023 03:30 2,1 C 1,1 C -1,7 C 92 % 1029,0 hPa 0,0 l/m 0 min 0 min 0 W/m 6,4 km/h (2 Bft) 97,96 %
15.02.2023 03:32 2,1 C 1,1 C -1,7 C 92 % 1028,9 hPa 0,0 l/m 0 min 0 min 0 W/m 16,1 km/h (3 Bft) 100,00 %
15.02.2023 03:34 2,1 C 1,1 C -1,7 C 92 % 1028,9 hPa 0,0 l/m 0 min 0 min 0 W/m 6,4 km/h (2 Bft) 95,74 %
15.02.2023 03:36 2,1 C 1,1 C -1,7 C 92 % 1028,9 hPa 0,0 l/m 0 min 0 min 0 W/m 12,9 km/h (3 Bft) 100,00 %
15.02.2023 03:38 2,1 C 1,1 C -1,7 C 92 % 1028,9 hPa 0,0 l/m 0 min 0 min 0 W/m 6,4 km/h (2 Bft) 100,00 %
15.02.2023 03:40 2,0 C 1,1 C -1,7 C 92 % 1028,9 hPa 0,0 l/m 0 min 0 min 0 W/m 6,4 km/h (2 Bft) 97,87 %
15.02.2023 03:42 2,0 C 1,1 C -1,7 C 92 % 1028,9 hPa 0,0 l/m 0 min 0 min 0 W/m 12,9 km/h (3 Bft) 100,00 %
15.02.2023 03:44 2,0 C 1,1 C -1,7 C 92 % 1028,8 hPa 0,0 l/m 0 min 0 min 0 W/m 12,9 km/h (3 Bft) 100,00 %
15.02.2023 03:46 1,9 C 1,1 C -1,7 C 92 % 1028,8 hPa 0,0 l/m 0 min 0 min 0 W/m 6,4 km/h (2 Bft) 97,87 %
15.02.2023 03:48 1,9 C 1,1 C -1,7 C 92 % 1028,8 hPa 0,0 l/m 0 min 0 min 0 W/m 16,1 km/h (3 Bft) 100,00 %
15.02.2023 03:50 1,9 C 1,1 C -1,7 C 92 % 1028,7 hPa 0,0 l/m 0 min 0 min 0 W/m 19,3 km/h (3 Bft) 97,96 %
15.02.2023 03:52 1,9 C 1,1 C -1,7 C 92 % 1028,7 hPa 0,0 l/m 0 min 0 min 0 W/m 12,9 km/h (3 Bft) 100,00 %
15.02.2023 03:54 1,9 C 1,1 C -1,7 C 92 % 1028,7 hPa 0,0 l/m 0 min 0 min 0 W/m 16,1 km/h (3 Bft) 97,87 %
15.02.2023 03:56 1,9 C 1,1 C -1,7 C 92 % 1028,7 hPa 0,0 l/m 0 min 0 min 0 W/m 16,1 km/h (3 Bft) 100,00 %
15.02.2023 03:58 1,9 C 1,1 C -1,7 C 92 % 1028,7 hPa 0,0 l/m 0 min 0 min 0 W/m 12,9 km/h (3 Bft) 97,87 %
15.02.2023 04:00 1,9 C 1,1 C -1,7 C 92 % 1028,6 hPa 0,0 l/m 0 min 0 min 0 W/m 12,9 km/h (3 Bft) 95,74 %
15.02.2023 04:05 1,9 C 1,1 C -1,7 C 92 % 1028,5 hPa 0,0 l/m 0 min 0 min 0 W/m 12,9 km/h (3 Bft) 95,83 %
15.02.2023 04:06 1,8 C 1,1 C -1,7 C 92 % 1028,5 hPa 0,0 l/m 0 min 0 min 0 W/m 12,9 km/h (3 Bft) 100,00 %
15.02.2023 04:08 1,8 C 1,1 C -1,7 C 93 % 1028,5 hPa 0,0 l/m 0 min 0 min 0 W/m 12,9 km/h (3 Bft) 93,48 %
15.02.2023 04:10 1,8 C 1,1 C -1,7 C 93 % 1028,5 hPa 0,0 l/m 0 min 0 min 0 W/m 9,7 km/h (2 Bft) 93,62 %
15.02.2023 04:12 1,8 C 1,1 C -1,7 C 93 % 1028,4 hPa 0,0 l/m 0 min 0 min 0 W/m 16,1 km/h (3 Bft) 91,49 %
15.02.2023 04:14 1,8 C 1,1 C -1,7 C 93 % 1028,4 hPa 0,0 l/m 0 min 0 min 0 W/m 16,1 km/h (3 Bft) 91,49 %
15.02.2023 04:16 1,8 C 1,1 C -1,7 C 93 % 1028,5 hPa 0,0 l/m 0 min 0 min 0 W/m 12,9 km/h (3 Bft) 92,00 %
15.02.2023 04:18 1,8 C 1,1 C -1,7 C 93 % 1028,5 hPa 0,0 l/m 0 min 0 min 0 W/m 9,7 km/h (2 Bft) 91,43 %
15.02.2023 04:20 1,8 C 1,1 C -1,7 C 93 % 1028,5 hPa 0,0 l/m 0 min 0 min 0 W/m 12,9 km/h (3 Bft) 91,49 %
15.02.2023 04:22 1,8 C 1,1 C -1,7 C 93 % 1028,5 hPa 0,0 l/m 0 min 0 min 0 W/m 12,9 km/h (3 Bft) 87,23 %
15.02.2023 04:24 1,8 C 1,1 C -1,7 C 93 % 1028,5 hPa 0,0 l/m 0 min 0 min 0 W/m 12,9 km/h (3 Bft) 91,49 %
15.02.2023 04:26 1,8 C 1,1 C -1,7 C 93 % 1028,5 hPa 0,0 l/m 0 min 0 min 0 W/m 12,9 km/h (3 Bft) 93,48 %
15.02.2023 04:28 1,8 C 1,1 C -1,7 C 93 % 1028,5 hPa 0,0 l/m 0 min 0 min 0 W/m 9,7 km/h (2 Bft) 93,62 %
15.02.2023 04:30 1,8 C 1,1 C -1,7 C 93 % 1028,5 hPa 0,0 l/m 0 min 0 min 0 W/m 6,4 km/h (2 Bft) 95,74 %
15.02.2023 04:32 1,7 C 1,1 C -1,7 C 93 % 1028,4 hPa 0,0 l/m 0 min 0 min 0 W/m 12,9 km/h (3 Bft) 95,74 %
15.02.2023 04:34 1,7 C 1,1 C -1,7 C 93 % 1028,4 hPa 0,0 l/m 0 min 0 min 0 W/m 12,9 km/h (3 Bft) 95,74 %
15.02.2023 04:36 1,7 C 1,1 C -1,7 C 93 % 1028,4 hPa 0,0 l/m 0 min 0 min 0 W/m 12,9 km/h (3 Bft) 93,62 %
15.02.2023 04:38 1,7 C 1,1 C -1,7 C 93 % 1028,4 hPa 0,0 l/m 0 min 0 min 0 W/m 12,9 km/h (3 Bft) 97,87 %
15.02.2023 04:40 1,7 C 1,1 C -1,7 C 93 % 1028,4 hPa 0,0 l/m 0 min 0 min 0 W/m 9,7 km/h (2 Bft) 97,83 %
15.02.2023 04:42 1,7 C 1,1 C -1,7 C 93 % 1028,4 hPa 0,0 l/m 0 min 0 min 0 W/m 12,9 km/h (3 Bft) 97,87 %
15.02.2023 04:44 1,7 C 1,1 C -1,7 C 93 % 1028,4 hPa 0,0 l/m 0 min 0 min 0 W/m 16,1 km/h (3 Bft) 96,30 %
15.02.2023 04:46 1,7 C 1,1 C -1,7 C 93 % 1028,4 hPa 0,0 l/m 0 min 0 min 0 W/m 12,9 km/h (3 Bft) 95,74 %
15.02.2023 04:48 1,7 C 1,1 C -2,2 C 93 % 1028,5 hPa 0,0 l/m 0 min 0 min 0 W/m 12,9 km/h (3 Bft) 97,87 %
15.02.2023 04:50 1,6 C 1,1 C -2,2 C 93 % 1028,4 hPa 0,0 l/m 0 min 0 min 0 W/m 6,4 km/h (2 Bft) 97,96 %
15.02.2023 04:52 1,6 C 0,6 C -2,2 C 93 % 1028,4 hPa 0,0 l/m 0 min 0 min 0 W/m 12,9 km/h (3 Bft) 93,62 %
15.02.2023 04:54 1,6 C 1,1 C -2,2 C 93 % 1028,4 hPa 0,0 l/m 0 min 0 min 0 W/m 9,7 km/h (2 Bft) 97,96 %
15.02.2023 04:56 1,6 C 0,6 C -2,2 C 93 % 1028,4 hPa 0,0 l/m 0 min 0 min 0 W/m 16,1 km/h (3 Bft) 95,74 %
15.02.2023 04:58 1,6 C 0,6 C -2,2 C 93 % 1028,4 hPa 0,0 l/m 0 min 0 min 0 W/m 19,3 km/h (3 Bft) 95,74 %
15.02.2023 05:00 1,6 C 0,6 C -2,2 C 93 % 1028,4 hPa 0,0 l/m 0 min 0 min 0 W/m 12,9 km/h (3 Bft) 97,87 %
15.02.2023 05:02 1,6 C 0,6 C -2,2 C 93 % 1028,4 hPa 0,0 l/m 0 min 0 min 0 W/m 9,7 km/h (2 Bft) 95,74 %
15.02.2023 05:04 1,6 C 0,6 C -2,2 C 93 % 1028,4 hPa 0,0 l/m 0 min 0 min 0 W/m 12,9 km/h (3 Bft) 95,65 %
15.02.2023 05:06 1,6 C 0,6 C -2,2 C 93 % 1028,4 hPa 0,0 l/m 0 min 0 min 0 W/m 16,1 km/h (3 Bft) 85,11 %
15.02.2023 05:08 1,6 C 0,6 C -2,2 C 93 % 1028,3 hPa 0,0 l/m 0 min 0 min 0 W/m 6,4 km/h (2 Bft) 80,85 %
15.02.2023 05:10 1,5 C 0,6 C -2,2 C 93 % 1028,3 hPa 0,0 l/m 0 min 0 min 0 W/m 12,9 km/h (3 Bft) 94,29 %
15.02.2023 05:12 1,5 C 0,6 C -2,2 C 93 % 1028,3 hPa 0,0 l/m 0 min 0 min 0 W/m 12,9 km/h (3 Bft) 97,87 %
15.02.2023 05:14 1,5 C 0,6 C -2,2 C 93 % 1028,3 hPa 0,0 l/m 0 min 0 min 0 W/m 12,9 km/h (3 Bft) 100,00 %
15.02.2023 05:16 1,5 C 0,6 C -2,2 C 93 % 1028,3 hPa 0,0 l/m 0 min 0 min 0 W/m 16,1 km/h (3 Bft) 97,96 %
15.02.2023 05:18 1,5 C 0,6 C -2,2 C 93 % 1028,3 hPa 0,0 l/m 0 min 0 min 0 W/m 16,1 km/h (3 Bft) 95,74 %
15.02.2023 05:20 1,4 C 0,6 C -2,2 C 93 % 1028,3 hPa 0,0 l/m 0 min 0 min 0 W/m 19,3 km/h (3 Bft) 97,87 %
15.02.2023 05:22 1,4 C 0,6 C -2,2 C 93 % 1028,3 hPa 0,0 l/m 0 min 0 min 0 W/m 12,9 km/h (3 Bft) 95,65 %
15.02.2023 05:24 1,4 C 0,6 C -2,2 C 93 % 1028,3 hPa 0,0 l/m 0 min 0 min 0 W/m 12,9 km/h (3 Bft) 95,74 %
15.02.2023 05:26 1,4 C 0,6 C -2,2 C 93 % 1028,4 hPa 0,0 l/m 0 min 0 min 0 W/m 12,9 km/h (3 Bft) 97,87 %
15.02.2023 05:28 1,4 C 0,6 C -2,2 C 93 % 1028,4 hPa 0,0 l/m 0 min 0 min 0 W/m 12,9 km/h (3 Bft) 91,67 %
15.02.2023 05:30 1,4 C 0,6 C -2,2 C 93 % 1028,4 hPa 0,0 l/m 0 min 0 min 0 W/m 16,1 km/h (3 Bft) 97,87 %
15.02.2023 05:32 1,4 C 0,6 C -2,2 C 93 % 1028,3 hPa 0,0 l/m 0 min 0 min 0 W/m 19,3 km/h (3 Bft) 95,74 %
15.02.2023 05:34 1,4 C 0,6 C -2,2 C 93 % 1028,3 hPa 0,0 l/m 0 min 0 min 0 W/m 16,1 km/h (3 Bft) 93,48 %
15.02.2023 05:36 1,4 C 0,6 C -2,2 C 93 % 1028,2 hPa 0,0 l/m 0 min 0 min 0 W/m 12,9 km/h (3 Bft) 91,49 %
15.02.2023 05:38 1,4 C 0,6 C -2,2 C 93 % 1028,3 hPa 0,0 l/m 0 min 0 min 0 W/m 12,9 km/h (3 Bft) 95,74 %
15.02.2023 05:40 1,4 C 0,6 C -2,2 C 93 % 1028,3 hPa 0,0 l/m 0 min 0 min 0 W/m 12,9 km/h (3 Bft) 85,11 %
15.02.2023 05:42 1,3 C 0,6 C -2,2 C 93 % 1028,3 hPa 0,0 l/m 0 min 0 min 0 W/m 9,7 km/h (2 Bft) 97,87 %
15.02.2023 05:44 1,3 C 0,6 C -2,2 C 93 % 1028,3 hPa 0,0 l/m 0 min 0 min 0 W/m 12,9 km/h (3 Bft) 95,74 %
15.02.2023 05:46 1,3 C 0,6 C -2,2 C 93 % 1028,3 hPa 0,0 l/m 0 min 0 min 0 W/m 19,3 km/h (3 Bft) 94,23 %
15.02.2023 05:48 1,3 C 0,6 C -2,2 C 93 % 1028,2 hPa 0,0 l/m 0 min 0 min 0 W/m 19,3 km/h (3 Bft) 93,62 %
15.02.2023 05:50 1,3 C 0,6 C -2,2 C 93 % 1028,2 hPa 0,0 l/m 0 min 0 min 0 W/m 12,9 km/h (3 Bft) 93,62 %
15.02.2023 05:52 1,3 C 0,6 C -2,2 C 93 % 1028,2 hPa 0,0 l/m 0 min 0 min 0 W/m 12,9 km/h (3 Bft) 97,87 %
15.02.2023 05:54 1,3 C 0,6 C -2,2 C 94 % 1028,2 hPa 0,0 l/m 0 min 0 min 0 W/m 16,1 km/h (3 Bft) 97,92 %
15.02.2023 05:56 1,3 C 0,6 C -2,2 C 93 % 1028,2 hPa 0,0 l/m 0 min 0 min 0 W/m 12,9 km/h (3 Bft) 91,49 %
15.02.2023 05:58 1,3 C 0,6 C -2,2 C 94 % 1028,2 hPa 0,0 l/m 0 min 0 min 0 W/m 16,1 km/h (3 Bft) 97,87 %
15.02.2023 06:00 1,3 C 0,6 C -2,2 C 93 % 1028,2 hPa 0,0 l/m 0 min 0 min 0 W/m 19,3 km/h (3 Bft) 95,65 %
15.02.2023 06:02 1,3 C 0,6 C -2,2 C 93 % 1028,2 hPa 0,0 l/m 0 min 0 min 0 W/m 12,9 km/h (3 Bft) 91,49 %
15.02.2023 06:04 1,2 C 0,6 C -2,2 C 93 % 1028,2 hPa 0,0 l/m 0 min 0 min 0 W/m 12,9 km/h (3 Bft) 97,87 %
15.02.2023 06:07 1,2 C 0,6 C -2,2 C 93 % 1028,2 hPa 0,0 l/m 0 min 0 min 0 W/m 16,1 km/h (3 Bft) 96,88 %
15.02.2023 06:08 1,2 C 0,6 C -2,2 C 94 % 1028,2 hPa 0,0 l/m 0 min 0 min 0 W/m 12,9 km/h (3 Bft) 95,65 %
15.02.2023 06:12 1,2 C 0,6 C -2,2 C 94 % 1028,1 hPa 0,0 l/m 0 min 0 min 0 W/m 16,1 km/h (3 Bft) 94,44 %
15.02.2023 06:14 1,2 C 0,6 C -2,2 C 94 % 1028,1 hPa 0,0 l/m 0 min 0 min 0 W/m 16,1 km/h (3 Bft) 92,16 %
15.02.2023 06:16 1,2 C 0,6 C -2,2 C 94 % 1028,1 hPa 0,0 l/m 0 min 0 min 0 W/m 16,1 km/h (3 Bft) 95,74 %
15.02.2023 06:18 1,2 C 0,6 C -2,2 C 94 % 1028,1 hPa 0,0 l/m 0 min 0 min 0 W/m 9,7 km/h (2 Bft) 93,62 %
15.02.2023 06:20 1,2 C 0,6 C -2,2 C 94 % 1028,0 hPa 0,0 l/m 0 min 0 min 0 W/m 12,9 km/h (3 Bft) 93,62 %
15.02.2023 06:22 1,2 C 0,6 C -2,2 C 94 % 1028,0 hPa 0,0 l/m 0 min 0 min 0 W/m 12,9 km/h (3 Bft) 95,74 %
15.02.2023 06:24 1,2 C 0,6 C -2,2 C 94 % 1028,0 hPa 0,0 l/m 0 min 0 min 0 W/m 6,4 km/h (2 Bft) 95,74 %
15.02.2023 06:26 1,2 C 0,6 C -2,2 C 94 % 1028,0 hPa 0,0 l/m 0 min 0 min 0 W/m 12,9 km/h (3 Bft) 95,74 %
15.02.2023 06:28 1,1 C 0,6 C -2,2 C 94 % 1028,0 hPa 0,0 l/m 0 min 0 min 0 W/m 6,4 km/h (2 Bft) 95,74 %
15.02.2023 06:30 1,1 C 0,6 C -2,2 C 94 % 1028,0 hPa 0,0 l/m 0 min 0 min 0 W/m 6,4 km/h (2 Bft) 97,83 %
15.02.2023 06:32 1,1 C 0,6 C -2,2 C 94 % 1027,9 hPa 0,0 l/m 0 min 0 min 0 W/m 9,7 km/h (2 Bft) 91,49 %
15.02.2023 06:34 1,1 C 0,6 C -2,2 C 94 % 1027,9 hPa 0,0 l/m 0 min 0 min 0 W/m 12,9 km/h (3 Bft) 95,74 %
15.02.2023 06:36 1,1 C 0,0 C -2,2 C 94 % 1027,9 hPa 0,0 l/m 0 min 0 min 0 W/m 6,4 km/h (2 Bft) 97,87 %
15.02.2023 06:38 1,1 C 0,0 C -2,2 C 94 % 1027,9 hPa 0,0 l/m 0 min 0 min 0 W/m 6,4 km/h (2 Bft) 95,74 %
15.02.2023 06:40 1,1 C 0,0 C -2,2 C 94 % 1027,9 hPa 0,0 l/m 0 min 0 min 0 W/m 16,1 km/h (3 Bft) 97,87 %
15.02.2023 06:42 1,1 C 0,0 C -2,2 C 94 % 1027,9 hPa 0,0 l/m 0 min 0 min 0 W/m 12,9 km/h (3 Bft) 97,87 %
15.02.2023 06:44 1,1 C 0,0 C -2,2 C 94 % 1027,8 hPa 0,0 l/m 0 min 0 min 0 W/m 6,4 km/h (2 Bft) 97,83 %
15.02.2023 06:46 1,0 C 0,0 C -2,2 C 94 % 1027,9 hPa 0,0 l/m 0 min 0 min 0 W/m 6,4 km/h (2 Bft) 97,87 %
15.02.2023 06:48 1,0 C 0,0 C -2,2 C 94 % 1027,9 hPa 0,0 l/m 0 min 0 min 0 W/m 12,9 km/h (3 Bft) 95,74 %
15.02.2023 06:50 1,0 C 0,0 C -2,2 C 94 % 1028,0 hPa 0,0 l/m 0 min 0 min 0 W/m 16,1 km/h (3 Bft) 100,00 %
15.02.2023 06:52 1,0 C 0,0 C -2,2 C 94 % 1027,9 hPa 0,0 l/m 0 min 0 min 0 W/m 6,4 km/h (2 Bft) 97,87 %
15.02.2023 06:54 1,0 C 0,0 C -2,8 C 94 % 1027,9 hPa 0,0 l/m 0 min 0 min 0 W/m 9,7 km/h (2 Bft) 100,00 %
15.02.2023 06:56 1,0 C 0,0 C -2,8 C 94 % 1027,9 hPa 0,0 l/m 0 min 0 min 0 W/m 9,7 km/h (2 Bft) 100,00 %
15.02.2023 06:58 0,9 C 0,0 C -2,8 C 94 % 1027,9 hPa 0,0 l/m 0 min 0 min 0 W/m 12,9 km/h (3 Bft) 100,00 %
15.02.2023 07:00 0,9 C 0,0 C -2,8 C 94 % 1027,9 hPa 0,0 l/m 0 min 0 min 0 W/m 12,9 km/h (3 Bft) 100,00 %
15.02.2023 07:02 0,9 C 0,0 C -2,8 C 94 % 1027,9 hPa 0,0 l/m 0 min 0 min 0 W/m 6,4 km/h (2 Bft) 100,00 %
15.02.2023 07:04 0,9 C 0,0 C -2,8 C 94 % 1027,9 hPa 0,0 l/m 0 min 0 min 0 W/m 12,9 km/h (3 Bft) 95,74 %
15.02.2023 07:06 0,9 C 0,0 C -2,8 C 94 % 1027,9 hPa 0,0 l/m 0 min 0 min 0 W/m 12,9 km/h (3 Bft) 100,00 %
15.02.2023 07:08 0,9 C 0,0 C -2,8 C 94 % 1028,0 hPa 0,0 l/m 0 min 0 min 0 W/m 6,4 km/h (2 Bft) 100,00 %
15.02.2023 07:10 0,9 C 0,0 C -2,8 C 94 % 1028,0 hPa 0,0 l/m 0 min 0 min 0 W/m 12,9 km/h (3 Bft) 100,00 %
15.02.2023 07:12 0,9 C 0,0 C -2,8 C 94 % 1028,0 hPa 0,0 l/m 0 min 0 min 0 W/m 12,9 km/h (3 Bft) 100,00 %
15.02.2023 07:14 0,9 C 0,0 C -2,8 C 94 % 1027,9 hPa 0,0 l/m 0 min 0 min 0 W/m 9,7 km/h (2 Bft) 100,00 %
15.02.2023 07:16 0,8 C 0,0 C -2,8 C 94 % 1028,0 hPa 0,0 l/m 0 min 0 min 0 W/m 12,9 km/h (3 Bft) 100,00 %
15.02.2023 07:18 0,8 C 0,0 C -2,8 C 94 % 1028,0 hPa 0,0 l/m 0 min 0 min 0 W/m 9,7 km/h (2 Bft) 97,87 %
15.02.2023 07:20 0,8 C 0,0 C -2,8 C 94 % 1027,9 hPa 0,0 l/m 0 min 0 min 0 W/m 16,1 km/h (3 Bft) 100,00 %
15.02.2023 07:22 0,8 C 0,0 C -2,8 C 94 % 1027,9 hPa 0,0 l/m 0 min 0 min 0 W/m 6,4 km/h (2 Bft) 100,00 %
15.02.2023 07:24 0,8 C 0,0 C -2,8 C 94 % 1028,0 hPa 0,0 l/m 0 min 0 min 0 W/m 16,1 km/h (3 Bft) 97,83 %
15.02.2023 07:26 0,8 C 0,0 C -2,8 C 94 % 1028,0 hPa 0,0 l/m 0 min 0 min 0 W/m 16,1 km/h (3 Bft) 93,62 %
15.02.2023 07:28 0,8 C 0,0 C -2,8 C 94 % 1028,0 hPa 0,0 l/m 0 min 0 min 0 W/m 16,1 km/h (3 Bft) 97,87 %
15.02.2023 07:30 0,8 C 0,0 C -2,8 C 94 % 1028,0 hPa 0,0 l/m 0 min 0 min 0 W/m 12,9 km/h (3 Bft) 56,52 %
15.02.2023 07:32 0,8 C 0,0 C -2,8 C 94 % 1028,1 hPa 0,0 l/m 0 min 0 min 0 W/m 25,7 km/h (4 Bft) 95,74 %
15.02.2023 07:34 0,8 C 0,0 C -2,8 C 94 % 1028,1 hPa 0,0 l/m 0 min 0 min 0 W/m 12,9 km/h (3 Bft) 95,74 %
15.02.2023 07:36 0,8 C 0,0 C -2,2 C 94 % 1028,1 hPa 0,0 l/m 0 min 0 min 0 W/m 12,9 km/h (3 Bft) 93,62 %
15.02.2023 07:38 0,8 C 0,0 C -2,8 C 94 % 1028,1 hPa 0,0 l/m 0 min 0 min 0 W/m 16,1 km/h (3 Bft) 95,74 %
15.02.2023 07:40 0,8 C 0,0 C -2,8 C 94 % 1028,1 hPa 0,0 l/m 0 min 0 min 0 W/m 12,9 km/h (3 Bft) 95,65 %
15.02.2023 07:42 0,8 C 0,0 C -2,8 C 94 % 1028,1 hPa 0,0 l/m 0 min 0 min 0 W/m 9,7 km/h (2 Bft) 91,49 %
15.02.2023 07:44 0,8 C 0,0 C -2,8 C 94 % 1028,0 hPa 0,0 l/m 0 min 0 min 0 W/m 12,9 km/h (3 Bft) 95,74 %
15.02.2023 07:46 0,8 C 0,0 C -2,8 C 94 % 1028,1 hPa 0,0 l/m 0 min 0 min 1 W/m 12,9 km/h (3 Bft) 95,74 %
15.02.2023 07:48 0,8 C 0,0 C -2,8 C 94 % 1028,1 hPa 0,0 l/m 0 min 0 min 5 W/m 19,3 km/h (3 Bft) 95,74 %
15.02.2023 07:50 0,8 C 0,0 C -2,8 C 94 % 1028,1 hPa 0,0 l/m 0 min 0 min 5 W/m 22,5 km/h (4 Bft) 93,62 %
15.02.2023 07:52 0,8 C 0,0 C -2,2 C 94 % 1028,1 hPa 0,0 l/m 0 min 0 min 5 W/m 12,9 km/h (3 Bft) 91,30 %
15.02.2023 07:54 0,8 C 0,0 C -2,2 C 94 % 1028,1 hPa 0,0 l/m 0 min 0 min 7 W/m 12,9 km/h (3 Bft) 91,49 %
15.02.2023 07:56 0,8 C 0,0 C -2,2 C 94 % 1028,1 hPa 0,0 l/m 0 min 0 min 7 W/m 12,9 km/h (3 Bft) 95,74 %
15.02.2023 07:58 0,8 C 0,0 C -2,8 C 94 % 1028,1 hPa 0,0 l/m 0 min 0 min 9 W/m 19,3 km/h (3 Bft) 95,74 %
15.02.2023 08:00 0,8 C 0,0 C -2,8 C 94 % 1028,2 hPa 0,0 l/m 0 min 0 min 10 W/m 16,1 km/h (3 Bft) 93,62 %
15.02.2023 08:02 0,8 C 0,0 C -2,8 C 94 % 1028,2 hPa 0,0 l/m 0 min 0 min 11 W/m 12,9 km/h (3 Bft) 93,62 %
15.02.2023 08:04 0,8 C 0,0 C -2,8 C 94 % 1028,1 hPa 0,0 l/m 0 min 0 min 12 W/m 16,1 km/h (3 Bft) 95,74 %
15.02.2023 08:06 0,8 C 0,0 C -2,8 C 94 % 1028,0 hPa 0,0 l/m 0 min 0 min 13 W/m 12,9 km/h (3 Bft) 97,83 %
15.02.2023 08:08 0,8 C 0,6 C -2,2 C 94 % 1028,0 hPa 0,0 l/m 0 min 0 min 14 W/m 12,9 km/h (3 Bft) 95,74 %
15.02.2023 08:10 0,8 C 0,6 C -2,2 C 94 % 1028,0 hPa 0,0 l/m 0 min 0 min 15 W/m 16,1 km/h (3 Bft) 91,49 %
15.02.2023 08:12 0,8 C 0,6 C -2,2 C 94 % 1028,0 hPa 0,0 l/m 0 min 0 min 16 W/m 19,3 km/h (3 Bft) 93,62 %
15.02.2023 08:14 0,8 C 0,6 C -2,2 C 94 % 1028,0 hPa 0,0 l/m 0 min 0 min 18 W/m 16,1 km/h (3 Bft) 97,87 %
15.02.2023 08:16 0,8 C 0,6 C -2,2 C 94 % 1028,0 hPa 0,0 l/m 0 min 0 min 18 W/m 19,3 km/h (3 Bft) 100,00 %
15.02.2023 08:18 0,8 C 0,6 C -2,2 C 94 % 1027,9 hPa 0,0 l/m 0 min 0 min 19 W/m 16,1 km/h (3 Bft) 97,87 %
15.02.2023 08:20 0,8 C 0,6 C -2,2 C 94 % 1027,9 hPa 0,0 l/m 0 min 0 min 20 W/m 16,1 km/h (3 Bft) 95,74 %
15.02.2023 08:22 0,8 C 0,6 C -2,2 C 94 % 1027,9 hPa 0,0 l/m 0 min 0 min 21 W/m 12,9 km/h (3 Bft) 100,00 %
15.02.2023 08:24 0,8 C 0,6 C -2,2 C 94 % 1027,9 hPa 0,0 l/m 0 min 0 min 22 W/m 12,9 km/h (3 Bft) 100,00 %
15.02.2023 08:26 0,8 C 0,6 C -2,2 C 94 % 1027,9 hPa 0,0 l/m 0 min 0 min 23 W/m 16,1 km/h (3 Bft) 97,83 %
15.02.2023 08:28 0,9 C 0,6 C -2,2 C 94 % 1027,9 hPa 0,0 l/m 0 min 0 min 24 W/m 12,9 km/h (3 Bft) 95,74 %
15.02.2023 08:30 0,9 C 0,6 C -2,2 C 94 % 1027,9 hPa 0,0 l/m 0 min 0 min 25 W/m 16,1 km/h (3 Bft) 95,74 %
15.02.2023 08:32 0,9 C 0,6 C -2,2 C 94 % 1027,8 hPa 0,0 l/m 0 min 0 min 25 W/m 16,1 km/h (3 Bft) 97,87 %
15.02.2023 08:34 0,9 C 0,6 C -2,2 C 94 % 1027,8 hPa 0,0 l/m 0 min 0 min 26 W/m 16,1 km/h (3 Bft) 97,87 %
15.02.2023 08:36 0,9 C 0,6 C -2,2 C 94 % 1027,7 hPa 0,0 l/m 0 min 0 min 27 W/m 16,1 km/h (3 Bft) 97,87 %
15.02.2023 08:38 0,9 C 0,6 C -2,2 C 95 % 1027,7 hPa 0,0 l/m 0 min 0 min 28 W/m 12,9 km/h (3 Bft) 95,65 %
15.02.2023 08:40 0,9 C 0,6 C -2,2 C 95 % 1027,7 hPa 0,0 l/m 0 min 0 min 28 W/m 6,4 km/h (2 Bft) 95,74 %
15.02.2023 08:42 1,0 C 0,6 C -2,2 C 95 % 1027,7 hPa 0,0 l/m 0 min 0 min 30 W/m 6,4 km/h (2 Bft) 97,87 %
15.02.2023 08:44 1,0 C 0,6 C -2,2 C 95 % 1027,6 hPa 0,0 l/m 0 min 0 min 30 W/m 12,9 km/h (3 Bft) 95,74 %
15.02.2023 08:46 1,0 C 0,6 C -2,2 C 95 % 1027,5 hPa 0,0 l/m 0 min 0 min 31 W/m 12,9 km/h (3 Bft) 97,87 %
15.02.2023 08:48 1,1 C 1,1 C -2,2 C 94 % 1027,5 hPa 0,0 l/m 0 min 0 min 46 W/m 12,9 km/h (3 Bft) 97,87 %
15.02.2023 08:50 1,1 C 1,1 C -2,2 C 94 % 1027,5 hPa 0,0 l/m 2 min 0 min 90 W/m 19,3 km/h (3 Bft) 97,87 %
15.02.2023 08:52 1,1 C 1,1 C -2,2 C 94 % 1027,5 hPa 0,0 l/m 2 min 0 min 83 W/m 16,1 km/h (3 Bft) 97,87 %
15.02.2023 08:54 1,2 C 1,1 C -2,2 C 94 % 1027,5 hPa 0,0 l/m 0 min 0 min 59 W/m 16,1 km/h (3 Bft) 95,65 %
15.02.2023 08:56 1,2 C 1,1 C -2,2 C 94 % 1027,5 hPa 0,0 l/m 0 min 0 min 68 W/m 16,1 km/h (3 Bft) 95,74 %
15.02.2023 08:58 1,2 C 1,1 C -2,2 C 94 % 1027,5 hPa 0,0 l/m 0 min 0 min 77 W/m 16,1 km/h (3 Bft) 97,87 %
15.02.2023 09:00 1,2 C 1,7 C -1,7 C 95 % 1027,6 hPa 0,0 l/m 0 min 0 min 59 W/m 12,9 km/h (3 Bft) 82,98 %
15.02.2023 09:02 1,3 C 2,8 C -1,7 C 95 % 1027,5 hPa 0,0 l/m 0 min 0 min 62 W/m 12,9 km/h (3 Bft) 57,58 %
15.02.2023 09:04 1,3 C 2,8 C -1,7 C 95 % 1027,5 hPa 0,0 l/m 2 min 0 min 91 W/m 19,3 km/h (3 Bft) 97,87 %
15.02.2023 09:06 1,4 C 2,8 C -1,7 C 95 % 1027,4 hPa 0,0 l/m 2 min 0 min 94 W/m 16,1 km/h (3 Bft) 100,00 %
15.02.2023 09:08 1,4 C 2,8 C -1,7 C 95 % 1027,5 hPa 0,0 l/m 2 min 0 min 96 W/m 6,4 km/h (2 Bft) 100,00 %
15.02.2023 09:10 1,5 C 3,3 C -1,7 C 95 % 1027,4 hPa 0,0 l/m 2 min 0 min 111 W/m 12,9 km/h (3 Bft) 97,87 %
15.02.2023 09:12 1,6 C 3,9 C -1,7 C 95 % 1027,4 hPa 0,0 l/m 2 min 0 min 96 W/m 6,4 km/h (2 Bft) 100,00 %
15.02.2023 09:14 1,6 C 3,9 C -1,7 C 95 % 1027,4 hPa 0,0 l/m 0 min 0 min 89 W/m 16,1 km/h (3 Bft) 97,87 %
15.02.2023 09:16 1,7 C 3,9 C -1,7 C 95 % 1027,5 hPa 0,0 l/m 2 min 0 min 136 W/m 6,4 km/h (2 Bft) 100,00 %
15.02.2023 09:18 1,7 C 3,9 C -1,7 C 95 % 1027,4 hPa 0,0 l/m 0 min 0 min 84 W/m 12,9 km/h (3 Bft) 100,00 %
15.02.2023 09:20 1,8 C 3,9 C -1,7 C 95 % 1027,4 hPa 0,0 l/m 0 min 0 min 76 W/m 16,1 km/h (3 Bft) 100,00 %
15.02.2023 09:22 1,8 C 3,3 C -1,7 C 94 % 1027,4 hPa 0,0 l/m 0 min 0 min 55 W/m 16,1 km/h (3 Bft) 100,00 %
15.02.2023 09:24 1,9 C 3,3 C -1,7 C 95 % 1027,4 hPa 0,0 l/m 0 min 0 min 73 W/m 9,7 km/h (2 Bft) 97,83 %
15.02.2023 09:26 1,9 C 3,9 C -1,1 C 95 % 1027,3 hPa 0,0 l/m 2 min 0 min 155 W/m 9,7 km/h (2 Bft) 93,62 %
15.02.2023 09:28 2,0 C 3,9 C -1,1 C 94 % 1027,3 hPa 0,0 l/m 2 min 0 min 139 W/m 12,9 km/h (3 Bft) 95,74 %
15.02.2023 09:30 2,0 C 3,3 C -1,1 C 94 % 1027,3 hPa 0,0 l/m 0 min 0 min 92 W/m 16,1 km/h (3 Bft) 97,87 %
15.02.2023 09:32 2,1 C 3,3 C -1,1 C 94 % 1027,3 hPa 0,0 l/m 0 min 0 min 73 W/m 12,9 km/h (3 Bft) 97,87 %
15.02.2023 09:34 2,1 C 3,3 C -1,1 C 94 % 1027,3 hPa 0,0 l/m 0 min 0 min 67 W/m 12,9 km/h (3 Bft) 97,87 %
15.02.2023 09:36 2,2 C 3,3 C -1,1 C 94 % 1027,3 hPa 0,0 l/m 0 min 0 min 92 W/m 16,1 km/h (3 Bft) 97,83 %
15.02.2023 09:38 2,2 C 3,9 C -1,1 C 94 % 1027,3 hPa 0,0 l/m 2 min 0 min 139 W/m 12,9 km/h (3 Bft) 97,87 %
15.02.2023 09:40 2,2 C 3,9 C -1,1 C 94 % 1027,3 hPa 0,0 l/m 0 min 0 min 101 W/m 12,9 km/h (3 Bft) 95,74 %
15.02.2023 09:42 2,3 C 3,3 C -1,1 C 94 % 1027,3 hPa 0,0 l/m 0 min 0 min 56 W/m 16,1 km/h (3 Bft) 97,87 %
15.02.2023 09:44 2,3 C 3,3 C -1,1 C 94 % 1027,3 hPa 0,0 l/m 0 min 0 min 125 W/m 16,1 km/h (3 Bft) 97,87 %
15.02.2023 09:46 2,4 C 3,9 C -1,1 C 94 % 1027,2 hPa 0,0 l/m 0 min 0 min 109 W/m 12,9 km/h (3 Bft) 97,87 %
15.02.2023 09:48 2,4 C 3,9 C -0,6 C 94 % 1027,2 hPa 0,0 l/m 0 min 0 min 97 W/m 16,1 km/h (3 Bft) 97,87 %
15.02.2023 09:50 2,5 C 4,4 C -0,6 C 94 % 1027,2 hPa 0,0 l/m 2 min 0 min 171 W/m 16,1 km/h (3 Bft) 97,83 %
15.02.2023 09:52 2,6 C 5,0 C -0,6 C 93 % 1027,2 hPa 0,0 l/m 2 min 0 min 235 W/m 16,1 km/h (3 Bft) 95,74 %
15.02.2023 09:54 2,7 C 5,6 C -0,6 C 93 % 1027,2 hPa 0,0 l/m 2 min 0 min 231 W/m 9,7 km/h (2 Bft) 97,87 %
15.02.2023 09:56 2,7 C 6,7 C -0,6 C 93 % 1027,2 hPa 0,0 l/m 2 min 0 min 188 W/m 12,9 km/h (3 Bft) 97,87 %
15.02.2023 09:58 2,8 C 6,7 C -0,6 C 93 % 1027,2 hPa 0,0 l/m 2 min 0 min 161 W/m 19,3 km/h (3 Bft) 97,87 %
15.02.2023 10:00 2,9 C 7,2 C -0,6 C 93 % 1027,2 hPa 0,0 l/m 0 min 0 min 89 W/m 12,9 km/h (3 Bft) 97,87 %
15.02.2023 10:02 3,0 C 7,2 C -0,6 C 93 % 1027,2 hPa 0,0 l/m 0 min 0 min 65 W/m 9,7 km/h (2 Bft) 100,00 %
15.02.2023 10:04 3,1 C 7,8 C 0,0 C 93 % 1027,3 hPa 0,0 l/m 0 min 0 min 92 W/m 6,4 km/h (2 Bft) 100,00 %
15.02.2023 10:06 3,2 C 7,8 C 0,0 C 93 % 1027,2 hPa 0,0 l/m 2 min 0 min 193 W/m 19,3 km/h (3 Bft) 98,31 %
15.02.2023 10:08 3,3 C 7,8 C 0,0 C 93 % 1027,2 hPa 0,0 l/m 2 min 0 min 243 W/m 12,9 km/h (3 Bft) 100,00 %
15.02.2023 10:10 3,4 C 7,2 C 0,0 C 92 % 1027,2 hPa 0,0 l/m 2 min 0 min 181 W/m 16,1 km/h (3 Bft) 95,74 %
15.02.2023 10:12 3,5 C 7,8 C 0,0 C 92 % 1027,2 hPa 0,0 l/m 2 min 0 min 224 W/m 12,9 km/h (3 Bft) 100,00 %
15.02.2023 10:14 3,6 C 7,8 C 0,0 C 92 % 1027,2 hPa 0,0 l/m 2 min 0 min 291 W/m 19,3 km/h (3 Bft) 97,87 %
15.02.2023 10:16 3,7 C 8,3 C 0,0 C 91 % 1027,3 hPa 0,0 l/m 2 min 0 min 303 W/m 16,1 km/h (3 Bft) 97,87 %
15.02.2023 10:18 3,8 C 8,3 C 0,0 C 91 % 1027,2 hPa 0,0 l/m 2 min 0 min 303 W/m 12,9 km/h (3 Bft) 97,83 %
15.02.2023 10:20 3,8 C 8,3 C 0,0 C 91 % 1027,2 hPa 0,0 l/m 2 min 0 min 255 W/m 16,1 km/h (3 Bft) 97,87 %
15.02.2023 10:22 3,9 C 8,9 C 0,6 C 90 % 1027,2 hPa 0,0 l/m 2 min 0 min 246 W/m 12,9 km/h (3 Bft) 97,87 %
15.02.2023 10:24 4,0 C 9,4 C 0,6 C 90 % 1027,2 hPa 0,0 l/m 2 min 0 min 267 W/m 19,3 km/h (3 Bft) 97,87 %
15.02.2023 10:26 4,1 C 9,4 C 0,6 C 90 % 1027,3 hPa 0,0 l/m 2 min 0 min 319 W/m 12,9 km/h (3 Bft) 97,87 %
15.02.2023 10:28 4,2 C 9,4 C 0,6 C 89 % 1027,2 hPa 0,0 l/m 2 min 0 min 304 W/m 19,3 km/h (3 Bft) 97,87 %
15.02.2023 10:30 4,3 C 10,0 C 0,6 C 89 % 1027,2 hPa 0,0 l/m 2 min 0 min 269 W/m 19,3 km/h (3 Bft) 95,65 %
15.02.2023 10:32 4,3 C 10,6 C 0,6 C 88 % 1027,2 hPa 0,0 l/m 2 min 0 min 283 W/m 16,1 km/h (3 Bft) 97,87 %
15.02.2023 10:34 4,4 C 10,6 C 0,6 C 88 % 1027,2 hPa 0,0 l/m 2 min 0 min 301 W/m 16,1 km/h (3 Bft) 97,87 %
15.02.2023 10:36 4,5 C 11,1 C 0,6 C 87 % 1027,2 hPa 0,0 l/m 2 min 0 min 330 W/m 16,1 km/h (3 Bft) 97,87 %
15.02.2023 10:38 4,6 C 10,6 C 0,6 C 87 % 1027,2 hPa 0,0 l/m 2 min 0 min 314 W/m 19,3 km/h (3 Bft) 97,87 %
15.02.2023 10:40 4,7 C 11,1 C 0,6 C 86 % 1027,2 hPa 0,0 l/m 2 min 0 min 320 W/m 16,1 km/h (3 Bft) 95,74 %
15.02.2023 10:42 4,8 C 11,1 C 0,6 C 86 % 1027,2 hPa 0,0 l/m 2 min 0 min 323 W/m 19,3 km/h (3 Bft) 95,74 %
15.02.2023 10:44 4,8 C 11,7 C 1,1 C 86 % 1027,2 hPa 0,0 l/m 2 min 0 min 332 W/m 16,1 km/h (3 Bft) 97,83 %
15.02.2023 10:46 4,9 C 11,7 C 1,1 C 86 % 1027,2 hPa 0,0 l/m 2 min 0 min 322 W/m 16,1 km/h (3 Bft) 95,74 %
15.02.2023 10:48 5,0 C 11,7 C 1,1 C 86 % 1027,2 hPa 0,0 l/m 2 min 0 min 328 W/m 19,3 km/h (3 Bft) 97,87 %
15.02.2023 10:50 5,1 C 12,8 C 1,1 C 85 % 1027,1 hPa 0,0 l/m 2 min 0 min 368 W/m 16,1 km/h (3 Bft) 97,87 %
15.02.2023 10:52 5,2 C 13,3 C 1,1 C 85 % 1027,2 hPa 0,0 l/m 2 min 0 min 377 W/m 16,1 km/h (3 Bft) 95,74 %
15.02.2023 10:54 5,3 C 13,3 C 1,7 C 85 % 1027,2 hPa 0,0 l/m 2 min 0 min 371 W/m 12,9 km/h (3 Bft) 97,87 %
15.02.2023 10:56 5,4 C 12,8 C 1,7 C 84 % 1027,2 hPa 0,0 l/m 2 min 0 min 373 W/m 19,3 km/h (3 Bft) 95,65 %
15.02.2023 10:58 5,6 C 12,8 C 1,7 C 84 % 1027,2 hPa 0,0 l/m 2 min 0 min 389 W/m 12,9 km/h (3 Bft) 97,87 %
15.02.2023 11:00 5,6 C 11,7 C 1,7 C 84 % 1027,2 hPa 0,0 l/m 2 min 0 min 335 W/m 19,3 km/h (3 Bft) 100,00 %
15.02.2023 11:02 5,6 C 11,7 C 1,7 C 83 % 1027,1 hPa 0,0 l/m 2 min 0 min 338 W/m 16,1 km/h (3 Bft) 97,87 %
15.02.2023 11:04 5,7 C 12,2 C 1,7 C 83 % 1027,2 hPa 0,0 l/m 2 min 0 min 378 W/m 12,9 km/h (3 Bft) 100,00 %
15.02.2023 11:06 5,8 C 12,8 C 2,2 C 83 % 1027,2 hPa 0,0 l/m 2 min 0 min 363 W/m 12,9 km/h (3 Bft) 100,00 %
15.02.2023 11:08 5,9 C 12,2 C 2,2 C 83 % 1027,2 hPa 0,0 l/m 2 min 0 min 347 W/m 16,1 km/h (3 Bft) 100,00 %
15.02.2023 11:10 5,9 C 13,3 C 2,2 C 83 % 1027,2 hPa 0,0 l/m 2 min 0 min 374 W/m 12,9 km/h (3 Bft) 97,83 %
15.02.2023 11:12 6,1 C 13,9 C 2,8 C 83 % 1027,2 hPa 0,0 l/m 2 min 0 min 403 W/m 6,4 km/h (2 Bft) 97,87 %
15.02.2023 11:14 6,2 C 13,9 C 2,8 C 83 % 1027,2 hPa 0,0 l/m 2 min 0 min 394 W/m 12,9 km/h (3 Bft) 100,00 %
15.02.2023 11:16 6,3 C 13,3 C 2,8 C 82 % 1027,1 hPa 0,0 l/m 2 min 0 min 393 W/m 19,3 km/h (3 Bft) 100,00 %
15.02.2023 11:18 6,3 C 13,3 C 2,8 C 82 % 1027,2 hPa 0,0 l/m 2 min 0 min 381 W/m 12,9 km/h (3 Bft) 97,87 %
15.02.2023 11:20 6,4 C 12,8 C 3,3 C 82 % 1027,2 hPa 0,0 l/m 2 min 0 min 382 W/m 22,5 km/h (4 Bft) 100,00 %
15.02.2023 11:22 6,5 C 12,8 C 3,3 C 81 % 1027,2 hPa 0,0 l/m 2 min 0 min 379 W/m 19,3 km/h (3 Bft) 100,00 %
15.02.2023 11:24 6,5 C 12,2 C 3,9 C 81 % 1027,2 hPa 0,0 l/m 2 min 0 min 377 W/m 19,3 km/h (3 Bft) 100,00 %
15.02.2023 11:26 6,6 C 12,2 C 4,4 C 80 % 1027,2 hPa 0,0 l/m 2 min 0 min 375 W/m 12,9 km/h (3 Bft) 97,87 %
15.02.2023 11:28 6,6 C 12,2 C 4,4 C 80 % 1027,1 hPa 0,0 l/m 2 min 0 min 355 W/m 16,1 km/h (3 Bft) 97,87 %
15.02.2023 11:30 6,7 C 12,2 C 5,0 C 80 % 1027,2 hPa 0,0 l/m 2 min 0 min 349 W/m 16,1 km/h (3 Bft) 97,87 %
15.02.2023 11:32 6,7 C 11,7 C 5,0 C 80 % 1027,1 hPa 0,0 l/m 2 min 0 min 361 W/m 19,3 km/h (3 Bft) 97,87 %
15.02.2023 11:34 6,8 C 11,7 C 5,0 C 80 % 1027,2 hPa 0,0 l/m 2 min 0 min 357 W/m 16,1 km/h (3 Bft) 97,87 %
15.02.2023 11:36 6,8 C 12,2 C 5,0 C 80 % 1027,1 hPa 0,0 l/m 2 min 0 min 364 W/m 16,1 km/h (3 Bft) 97,87 %
15.02.2023 11:38 6,8 C 11,7 C 5,6 C 79 % 1027,1 hPa 0,0 l/m 2 min 0 min 368 W/m 12,9 km/h (3 Bft) 95,65 %
15.02.2023 11:40 6,9 C 12,2 C 5,6 C 80 % 1027,1 hPa 0,0 l/m 2 min 0 min 389 W/m 9,7 km/h (2 Bft) 97,87 %
15.02.2023 11:42 7,1 C 12,2 C 5,6 C 79 % 1027,1 hPa 0,0 l/m 2 min 0 min 384 W/m 16,1 km/h (3 Bft) 95,74 %
15.02.2023 11:44 7,1 C 12,2 C 6,1 C 79 % 1027,1 hPa 0,0 l/m 2 min 0 min 366 W/m 12,9 km/h (3 Bft) 97,87 %
15.02.2023 11:46 7,2 C 12,2 C 6,1 C 79 % 1027,1 hPa 0,0 l/m 2 min 0 min 351 W/m 12,9 km/h (3 Bft) 97,87 %
15.02.2023 11:48 7,2 C 12,2 C 6,1 C 79 % 1027,1 hPa 0,0 l/m 2 min 0 min 271 W/m 12,9 km/h (3 Bft) 97,87 %
15.02.2023 11:50 7,3 C 11,7 C 6,1 C 78 % 1027,1 hPa 0,0 l/m 2 min 0 min 234 W/m 19,3 km/h (3 Bft) 91,49 %
15.02.2023 11:52 7,3 C 11,1 C 5,6 C 78 % 1027,1 hPa 0,0 l/m 2 min 0 min 212 W/m 16,1 km/h (3 Bft) 97,83 %
15.02.2023 11:54 7,4 C 10,0 C 5,6 C 78 % 1027,0 hPa 0,0 l/m 2 min 0 min 259 W/m 16,1 km/h (3 Bft) 97,87 %
15.02.2023 11:56 7,4 C 10,0 C 5,6 C 78 % 1027,0 hPa 0,0 l/m 2 min 0 min 215 W/m 16,1 km/h (3 Bft) 100,00 %
15.02.2023 11:58 7,4 C 10,0 C 5,0 C 77 % 1027,0 hPa 0,0 l/m 2 min 0 min 229 W/m 19,3 km/h (3 Bft) 100,00 %
15.02.2023 12:00 7,4 C 10,6 C 5,0 C 77 % 1027,0 hPa 0,0 l/m 0 min 0 min 195 W/m 16,1 km/h (3 Bft) 100,00 %
15.02.2023 12:02 7,4 C 10,6 C 5,0 C 77 % 1027,0 hPa 0,0 l/m 2 min 0 min 221 W/m 19,3 km/h (3 Bft) 97,87 %
15.02.2023 12:04 7,5 C 10,6 C 4,4 C 77 % 1027,0 hPa 0,0 l/m 0 min 0 min 166 W/m 19,3 km/h (3 Bft) 100,00 %
15.02.2023 12:07 7,6 C 10,0 C 5,0 C 77 % 1027,0 hPa 0,0 l/m 0 min 0 min 128 W/m 16,1 km/h (3 Bft) 100,00 %
15.02.2023 12:08 7,6 C 10,0 C 5,0 C 77 % 1027,0 hPa 0,0 l/m 0 min 0 min 112 W/m 9,7 km/h (2 Bft) 100,00 %
15.02.2023 12:12 7,7 C 9,4 C 5,0 C 78 % 1026,9 hPa 0,0 l/m 0 min 0 min 110 W/m 16,1 km/h (3 Bft) 100,00 %
15.02.2023 12:14 7,7 C 8,9 C 4,4 C 77 % 1026,9 hPa 0,0 l/m 0 min 0 min 118 W/m 12,9 km/h (3 Bft) 100,00 %
15.02.2023 12:16 7,7 C 8,9 C 4,4 C 77 % 1026,8 hPa 0,0 l/m 0 min 0 min 119 W/m 16,1 km/h (3 Bft) 100,00 %
15.02.2023 12:18 7,7 C 8,9 C 5,0 C 77 % 1026,9 hPa 0,0 l/m 0 min 0 min 132 W/m 12,9 km/h (3 Bft) 100,00 %
15.02.2023 12:20 7,7 C 9,4 C 5,6 C 77 % 1026,8 hPa 0,0 l/m 0 min 0 min 201 W/m 12,9 km/h (3 Bft) 97,87 %
15.02.2023 12:22 7,8 C 10,0 C 6,1 C 77 % 1026,9 hPa 0,0 l/m 0 min 0 min 200 W/m 9,7 km/h (2 Bft) 100,00 %
15.02.2023 12:24 7,8 C 11,1 C 6,1 C 77 % 1026,8 hPa 0,0 l/m 0 min 0 min 169 W/m 16,1 km/h (3 Bft) 97,87 %
15.02.2023 12:26 7,9 C 11,1 C 6,1 C 77 % 1026,9 hPa 0,0 l/m 0 min 0 min 163 W/m 16,1 km/h (3 Bft) 100,00 %
15.02.2023 12:28 7,9 C 10,6 C 6,1 C 77 % 1026,8 hPa 0,0 l/m 0 min 0 min 179 W/m 16,1 km/h (3 Bft) 97,87 %
15.02.2023 12:30 7,9 C 10,6 C 6,1 C 77 % 1026,8 hPa 0,0 l/m 0 min 0 min 186 W/m 16,1 km/h (3 Bft) 100,00 %
15.02.2023 12:32 8,0 C 10,0 C 6,7 C 77 % 1026,8 hPa 0,0 l/m 2 min 0 min 233 W/m 12,9 km/h (3 Bft) 100,00 %
15.02.2023 12:34 8,1 C 10,6 C 6,1 C 77 % 1026,7 hPa 0,0 l/m 0 min 0 min 211 W/m 16,1 km/h (3 Bft) 100,00 %
15.02.2023 12:36 8,1 C 10,6 C 6,1 C 77 % 1026,7 hPa 0,0 l/m 0 min 0 min 172 W/m 16,1 km/h (3 Bft) 100,00 %
15.02.2023 12:38 8,2 C 10,6 C 5,6 C 76 % 1026,7 hPa 0,0 l/m 0 min 0 min 182 W/m 16,1 km/h (3 Bft) 100,00 %
15.02.2023 12:40 8,2 C 10,6 C 5,6 C 76 % 1026,7 hPa 0,0 l/m 0 min 0 min 203 W/m 16,1 km/h (3 Bft) 100,00 %
15.02.2023 12:42 8,3 C 10,6 C 5,0 C 76 % 1026,6 hPa 0,0 l/m 2 min 0 min 300 W/m 16,1 km/h (3 Bft) 100,00 %
15.02.2023 12:44 8,3 C 10,6 C 5,0 C 76 % 1026,6 hPa 0,0 l/m 2 min 0 min 329 W/m 16,1 km/h (3 Bft) 100,00 %
15.02.2023 12:46 8,4 C 10,6 C 5,0 C 76 % 1026,5 hPa 0,0 l/m 2 min 0 min 314 W/m 12,9 km/h (3 Bft) 100,00 %
15.02.2023 12:48 8,4 C 10,6 C 5,0 C 76 % 1026,5 hPa 0,0 l/m 2 min 0 min 246 W/m 12,9 km/h (3 Bft) 100,00 %
15.02.2023 12:50 8,4 C 11,1 C 5,0 C 76 % 1026,4 hPa 0,0 l/m 2 min 0 min 225 W/m 16,1 km/h (3 Bft) 97,87 %
15.02.2023 12:52 8,6 C 11,7 C 5,0 C 76 % 1026,4 hPa 0,0 l/m 2 min 0 min 266 W/m 12,9 km/h (3 Bft) 100,00 %
15.02.2023 12:54 8,6 C 11,7 C 5,0 C 76 % 1026,4 hPa 0,0 l/m 2 min 0 min 306 W/m 12,9 km/h (3 Bft) 100,00 %
15.02.2023 12:56 8,7 C 12,2 C 5,0 C 76 % 1026,4 hPa 0,0 l/m 2 min 0 min 382 W/m 12,9 km/h (3 Bft) 100,00 %
15.02.2023 12:58 8,7 C 12,8 C 5,0 C 76 % 1026,4 hPa 0,0 l/m 2 min 0 min 389 W/m 6,4 km/h (2 Bft) 100,00 %
15.02.2023 13:00 8,8 C 12,2 C 5,0 C 75 % 1026,3 hPa 0,0 l/m 2 min 0 min 363 W/m 16,1 km/h (3 Bft) 100,00 %
15.02.2023 13:02 8,9 C 12,8 C 5,0 C 75 % 1026,3 hPa 0,0 l/m 2 min 0 min 414 W/m 16,1 km/h (3 Bft) 100,00 %
15.02.2023 13:04 9,0 C 14,4 C 5,0 C 75 % 1026,2 hPa 0,0 l/m 2 min 0 min 442 W/m 9,7 km/h (2 Bft) 100,00 %
15.02.2023 13:06 9,1 C 15,0 C 5,6 C 75 % 1026,2 hPa 0,0 l/m 2 min 0 min 454 W/m 12,9 km/h (3 Bft) 94,92 %
15.02.2023 13:08 9,2 C 15,6 C 5,6 C 74 % 1026,1 hPa 0,0 l/m 2 min 0 min 457 W/m 12,9 km/h (3 Bft) 97,14 %
15.02.2023 13:10 9,3 C 15,6 C 5,6 C 74 % 1026,1 hPa 0,0 l/m 2 min 0 min 458 W/m 16,1 km/h (3 Bft) 97,87 %
15.02.2023 13:12 9,4 C 15,6 C 5,6 C 73 % 1026,1 hPa 0,0 l/m 2 min 0 min 455 W/m 22,5 km/h (4 Bft) 97,83 %
15.02.2023 13:14 9,4 C 16,1 C 5,6 C 73 % 1026,1 hPa 0,0 l/m 2 min 0 min 455 W/m 12,9 km/h (3 Bft) 97,87 %
15.02.2023 13:16 9,6 C 17,2 C 5,6 C 73 % 1026,1 hPa 0,0 l/m 2 min 0 min 445 W/m 6,4 km/h (2 Bft) 95,74 %
15.02.2023 13:18 9,7 C 17,2 C 5,6 C 73 % 1026,1 hPa 0,0 l/m 2 min 0 min 441 W/m 12,9 km/h (3 Bft) 93,62 %
15.02.2023 13:20 9,8 C 17,8 C 5,6 C 72 % 1026,1 hPa 0,0 l/m 2 min 0 min 448 W/m 12,9 km/h (3 Bft) 97,87 %
15.02.2023 13:22 9,9 C 17,2 C 5,6 C 72 % 1026,1 hPa 0,0 l/m 2 min 0 min 453 W/m 12,9 km/h (3 Bft) 95,74 %
15.02.2023 13:24 10,1 C 17,2 C 5,6 C 71 % 1026,1 hPa 0,0 l/m 2 min 0 min 455 W/m 12,9 km/h (3 Bft) 95,74 %
15.02.2023 13:26 10,2 C 17,2 C 6,1 C 71 % 1026,1 hPa 0,0 l/m 2 min 0 min 455 W/m 16,1 km/h (3 Bft) 93,48 %
15.02.2023 13:28 10,3 C 17,8 C 6,1 C 71 % 1026,1 hPa 0,0 l/m 2 min 0 min 456 W/m 6,4 km/h (2 Bft) 93,62 %
15.02.2023 13:30 10,4 C 17,2 C 6,1 C 71 % 1026,1 hPa 0,0 l/m 2 min 0 min 447 W/m 12,9 km/h (3 Bft) 91,49 %
15.02.2023 13:32 10,5 C 17,8 C 6,1 C 70 % 1026,1 hPa 0,0 l/m 2 min 0 min 444 W/m 12,9 km/h (3 Bft) 95,74 %
15.02.2023 13:34 10,6 C 17,8 C 6,1 C 70 % 1026,1 hPa 0,0 l/m 2 min 0 min 456 W/m 12,9 km/h (3 Bft) 95,74 %
15.02.2023 13:36 10,7 C 18,3 C 6,1 C 70 % 1026,1 hPa 0,0 l/m 2 min 0 min 461 W/m 12,9 km/h (3 Bft) 95,74 %
15.02.2023 13:38 10,8 C 18,3 C 6,1 C 70 % 1026,1 hPa 0,0 l/m 2 min 0 min 458 W/m 6,4 km/h (2 Bft) 93,62 %
15.02.2023 13:40 10,9 C 18,9 C 6,1 C 70 % 1026,0 hPa 0,0 l/m 2 min 0 min 455 W/m 6,4 km/h (2 Bft) 97,83 %
15.02.2023 13:42 11,1 C 18,3 C 6,1 C 69 % 1026,0 hPa 0,0 l/m 2 min 0 min 452 W/m 12,9 km/h (3 Bft) 89,36 %
15.02.2023 13:44 11,2 C 17,2 C 6,1 C 69 % 1026,0 hPa 0,0 l/m 2 min 0 min 448 W/m 12,9 km/h (3 Bft) 91,49 %
15.02.2023 13:46 11,2 C 17,2 C 6,1 C 69 % 1025,9 hPa 0,0 l/m 2 min 0 min 423 W/m 12,9 km/h (3 Bft) 93,62 %
15.02.2023 13:48 11,3 C 16,7 C 6,1 C 68 % 1025,9 hPa 0,0 l/m 2 min 0 min 418 W/m 16,1 km/h (3 Bft) 97,87 %
15.02.2023 13:50 11,3 C 16,1 C 6,1 C 68 % 1025,9 hPa 0,0 l/m 2 min 0 min 457 W/m 12,9 km/h (3 Bft) 97,87 %
15.02.2023 13:52 11,4 C 15,6 C 6,7 C 68 % 1025,8 hPa 0,0 l/m 2 min 0 min 465 W/m 19,3 km/h (3 Bft) 93,62 %
15.02.2023 13:54 11,4 C 14,4 C 6,7 C 67 % 1025,8 hPa 0,0 l/m 2 min 0 min 462 W/m 19,3 km/h (3 Bft) 93,48 %
15.02.2023 13:56 11,4 C 14,4 C 6,1 C 67 % 1025,7 hPa 0,0 l/m 2 min 0 min 463 W/m 16,1 km/h (3 Bft) 95,74 %
15.02.2023 13:58 11,5 C 15,0 C 6,7 C 67 % 1025,7 hPa 0,0 l/m 2 min 0 min 467 W/m 16,1 km/h (3 Bft) 95,74 %
15.02.2023 14:00 11,6 C 14,4 C 6,7 C 67 % 1025,7 hPa 0,0 l/m 2 min 0 min 470 W/m 16,1 km/h (3 Bft) 93,62 %
15.02.2023 14:02 11,6 C 15,0 C 6,7 C 67 % 1025,7 hPa 0,0 l/m 2 min 0 min 455 W/m 16,1 km/h (3 Bft) 91,49 %
15.02.2023 14:04 11,6 C 15,0 C 6,7 C 67 % 1025,7 hPa 0,0 l/m 2 min 0 min 452 W/m 12,9 km/h (3 Bft) 87,23 %
15.02.2023 14:06 11,7 C 15,0 C 6,7 C 67 % 1025,7 hPa 0,0 l/m 2 min 0 min 455 W/m 12,9 km/h (3 Bft) 94,83 %
15.02.2023 14:08 11,7 C 14,4 C 6,7 C 67 % 1025,7 hPa 0,0 l/m 2 min 0 min 450 W/m 12,9 km/h (3 Bft) 100,00 %
15.02.2023 14:10 11,8 C 13,9 C 6,7 C 66 % 1025,6 hPa 0,0 l/m 2 min 0 min 444 W/m 16,1 km/h (3 Bft) 95,74 %
15.02.2023 14:12 11,8 C 13,9 C 6,7 C 66 % 1025,5 hPa 0,0 l/m 2 min 0 min 434 W/m 16,1 km/h (3 Bft) 93,62 %
15.02.2023 14:14 11,8 C 13,9 C 6,7 C 66 % 1025,5 hPa 0,0 l/m 2 min 0 min 428 W/m 19,3 km/h (3 Bft) 95,74 %
15.02.2023 14:16 11,8 C 14,4 C 6,7 C 66 % 1025,5 hPa 0,0 l/m 2 min 0 min 429 W/m 6,4 km/h (2 Bft) 95,74 %
15.02.2023 14:18 11,8 C 14,4 C 6,7 C 66 % 1025,5 hPa 0,0 l/m 2 min 0 min 413 W/m 12,9 km/h (3 Bft) 97,87 %
15.02.2023 14:20 11,9 C 13,9 C 6,7 C 66 % 1025,5 hPa 0,0 l/m 2 min 0 min 399 W/m 19,3 km/h (3 Bft) 93,62 %
15.02.2023 14:22 11,9 C 14,4 C 6,7 C 67 % 1025,5 hPa 0,0 l/m 2 min 0 min 400 W/m 12,9 km/h (3 Bft) 97,83 %
15.02.2023 14:24 11,9 C 14,4 C 6,7 C 67 % 1025,5 hPa 0,0 l/m 2 min 0 min 412 W/m 12,9 km/h (3 Bft) 97,87 %
15.02.2023 14:26 11,9 C 15,0 C 6,7 C 67 % 1025,4 hPa 0,0 l/m 2 min 0 min 426 W/m 12,9 km/h (3 Bft) 95,74 %
15.02.2023 14:28 12,0 C 14,4 C 6,7 C 66 % 1025,4 hPa 0,0 l/m 2 min 0 min 427 W/m 12,9 km/h (3 Bft) 97,87 %
15.02.2023 14:30 12,0 C 14,4 C 6,7 C 66 % 1025,4 hPa 0,0 l/m 2 min 0 min 427 W/m 12,9 km/h (3 Bft) 100,00 %
15.02.2023 14:32 12,1 C 14,4 C 6,7 C 66 % 1025,3 hPa 0,0 l/m 2 min 0 min 423 W/m 12,9 km/h (3 Bft) 95,74 %
15.02.2023 14:34 12,1 C 15,0 C 6,7 C 66 % 1025,3 hPa 0,0 l/m 2 min 0 min 410 W/m 16,1 km/h (3 Bft) 89,36 %
15.02.2023 14:36 12,1 C 14,4 C 6,7 C 66 % 1025,3 hPa 0,0 l/m 2 min 0 min 377 W/m 12,9 km/h (3 Bft) 45,65 %
15.02.2023 14:38 12,2 C 13,9 C 6,7 C 66 % 1025,3 hPa 0,0 l/m 2 min 0 min 374 W/m 16,1 km/h (3 Bft) 78,72 %
15.02.2023 14:40 12,2 C 14,4 C 6,7 C 65 % 1025,2 hPa 0,0 l/m 2 min 0 min 394 W/m 9,7 km/h (2 Bft) 95,74 %
15.02.2023 14:42 12,2 C 15,0 C 6,7 C 65 % 1025,2 hPa 0,0 l/m 2 min 0 min 394 W/m 16,1 km/h (3 Bft) 97,87 %
15.02.2023 14:44 12,3 C 15,0 C 6,7 C 65 % 1025,3 hPa 0,0 l/m 2 min 0 min 378 W/m 16,1 km/h (3 Bft) 93,62 %
15.02.2023 14:46 12,3 C 15,6 C 6,7 C 65 % 1025,2 hPa 0,0 l/m 2 min 0 min 396 W/m 12,9 km/h (3 Bft) 93,62 %
15.02.2023 14:48 12,4 C 15,0 C 6,7 C 65 % 1025,3 hPa 0,0 l/m 2 min 0 min 395 W/m 12,9 km/h (3 Bft) 97,87 %
15.02.2023 14:50 12,4 C 15,0 C 6,7 C 65 % 1025,3 hPa 0,0 l/m 2 min 0 min 375 W/m 12,9 km/h (3 Bft) 63,83 %
15.02.2023 14:52 12,4 C 14,4 C 7,2 C 65 % 1025,3 hPa 0,0 l/m 2 min 0 min 349 W/m 16,1 km/h (3 Bft) 80,43 %
15.02.2023 14:54 12,4 C 14,4 C 7,2 C 64 % 1025,2 hPa 0,0 l/m 2 min 0 min 353 W/m 12,9 km/h (3 Bft) 82,98 %
15.02.2023 14:56 12,5 C 14,4 C 7,2 C 65 % 1025,2 hPa 0,0 l/m 2 min 0 min 358 W/m 12,9 km/h (3 Bft) 87,23 %
15.02.2023 14:58 12,5 C 13,9 C 7,2 C 64 % 1025,2 hPa 0,0 l/m 2 min 0 min 334 W/m 9,7 km/h (2 Bft) 87,23 %
15.02.2023 15:00 12,6 C 13,9 C 6,7 C 65 % 1025,3 hPa 0,0 l/m 2 min 0 min 335 W/m 12,9 km/h (3 Bft) 89,36 %
15.02.2023 15:02 12,6 C 14,4 C 7,2 C 65 % 1025,3 hPa 0,0 l/m 2 min 0 min 348 W/m 12,9 km/h (3 Bft) 89,36 %
15.02.2023 15:04 12,6 C 15,0 C 7,2 C 64 % 1025,2 hPa 0,0 l/m 2 min 0 min 349 W/m 12,9 km/h (3 Bft) 60,00 %
15.02.2023 15:06 12,6 C 15,6 C 7,2 C 64 % 1025,2 hPa 0,0 l/m 2 min 0 min 348 W/m 6,4 km/h (2 Bft) 11,86 %
15.02.2023 15:08 12,6 C 15,0 C 7,2 C 64 % 1025,1 hPa 0,0 l/m 2 min 0 min 348 W/m 6,4 km/h (2 Bft) 20,00 %
15.02.2023 15:10 12,6 C 14,4 C 7,2 C 64 % 1025,1 hPa 0,0 l/m 2 min 0 min 348 W/m 0,0 km/h (0 Bft) 4,76 %
15.02.2023 15:12 12,6 C 13,9 C 7,2 C 64 % 1025,1 hPa 0,0 l/m 2 min 0 min 348 W/m 0,0 km/h (0 Bft) 95,26 %
15.02.2023 15:14 12,6 C 13,9 C 7,2 C 64 % 1025,1 hPa 0,0 l/m 2 min 0 min 348 W/m 12,9 km/h (3 Bft) 14,29 %
15.02.2023 15:16 12,7 C 13,9 C 7,2 C 64 % 1025,1 hPa 0,0 l/m 2 min 0 min 348 W/m 12,9 km/h (3 Bft) 60,53 %
15.02.2023 15:18 12,7 C 13,3 C 7,2 C 64 % 1025,1 hPa 0,0 l/m 2 min 0 min 216 W/m 12,9 km/h (3 Bft) 100,00 %
15.02.2023 15:20 12,7 C 12,8 C 7,2 C 64 % 1025,1 hPa 0,0 l/m 2 min 0 min 220 W/m 9,7 km/h (2 Bft) 97,87 %
15.02.2023 15:22 12,7 C 12,8 C 6,7 C 64 % 1025,0 hPa 0,0 l/m 2 min 0 min 214 W/m 6,4 km/h (2 Bft) 97,87 %
15.02.2023 15:24 12,7 C 12,8 C 6,7 C 64 % 1025,0 hPa 0,0 l/m 2 min 0 min 232 W/m 12,9 km/h (3 Bft) 95,74 %
15.02.2023 15:26 12,6 C 12,8 C 6,7 C 64 % 1025,0 hPa 0,0 l/m 2 min 0 min 227 W/m 9,7 km/h (2 Bft) 91,49 %
15.02.2023 15:28 12,6 C 12,8 C 6,7 C 64 % 1025,0 hPa 0,0 l/m 2 min 0 min 205 W/m 6,4 km/h (2 Bft) 95,74 %
15.02.2023 15:30 12,6 C 12,8 C 6,7 C 64 % 1025,0 hPa 0,0 l/m 2 min 0 min 197 W/m 9,7 km/h (2 Bft) 95,74 %
15.02.2023 15:32 12,6 C 12,8 C 6,7 C 65 % 1025,0 hPa 0,0 l/m 2 min 0 min 174 W/m 16,1 km/h (3 Bft) 93,48 %
15.02.2023 15:34 12,6 C 12,8 C 6,7 C 65 % 1025,0 hPa 0,0 l/m 2 min 0 min 161 W/m 9,7 km/h (2 Bft) 97,87 %
15.02.2023 15:36 12,6 C 12,8 C 6,7 C 65 % 1025,0 hPa 0,0 l/m 2 min 0 min 147 W/m 6,4 km/h (2 Bft) 97,87 %
15.02.2023 15:38 12,6 C 12,2 C 6,7 C 66 % 1025,0 hPa 0,0 l/m 2 min 0 min 144 W/m 6,4 km/h (2 Bft) 97,87 %
15.02.2023 15:40 12,6 C 12,2 C 6,7 C 66 % 1025,0 hPa 0,0 l/m 2 min 0 min 142 W/m 12,9 km/h (3 Bft) 97,87 %
15.02.2023 15:42 12,5 C 12,2 C 6,7 C 66 % 1025,0 hPa 0,0 l/m 2 min 0 min 137 W/m 6,4 km/h (2 Bft) 93,62 %
15.02.2023 15:44 12,4 C 12,2 C 6,7 C 66 % 1025,0 hPa 0,0 l/m 2 min 0 min 141 W/m 6,4 km/h (2 Bft) 93,62 %
15.02.2023 15:46 12,4 C 12,2 C 6,7 C 66 % 1024,9 hPa 0,0 l/m 2 min 0 min 156 W/m 9,7 km/h (2 Bft) 93,48 %
15.02.2023 15:48 12,4 C 12,2 C 6,7 C 67 % 1024,9 hPa 0,0 l/m 2 min 0 min 164 W/m 9,7 km/h (2 Bft) 97,87 %
15.02.2023 15:50 12,3 C 11,7 C 6,7 C 67 % 1024,9 hPa 0,0 l/m 2 min 0 min 168 W/m 9,7 km/h (2 Bft) 95,74 %
15.02.2023 15:52 12,3 C 11,7 C 6,7 C 68 % 1024,8 hPa 0,0 l/m 2 min 0 min 165 W/m 12,9 km/h (3 Bft) 76,60 %
15.02.2023 15:54 12,3 C 11,7 C 6,7 C 68 % 1024,9 hPa 0,0 l/m 2 min 0 min 163 W/m 6,4 km/h (2 Bft) 57,45 %
15.02.2023 15:56 12,3 C 11,7 C 6,7 C 68 % 1024,9 hPa 0,0 l/m 2 min 0 min 153 W/m 3,2 km/h (1 Bft) 48,94 %
15.02.2023 15:58 12,2 C 11,7 C 6,7 C 68 % 1024,9 hPa 0,0 l/m 2 min 0 min 157 W/m 6,4 km/h (2 Bft) 93,62 %
15.02.2023 16:00 12,2 C 11,7 C 6,7 C 68 % 1024,9 hPa 0,0 l/m 2 min 0 min 151 W/m 12,9 km/h (3 Bft) 91,49 %
15.02.2023 16:02 12,2 C 11,7 C 6,7 C 68 % 1024,9 hPa 0,0 l/m 2 min 0 min 146 W/m 9,7 km/h (2 Bft) 100,00 %
15.02.2023 16:04 12,1 C 11,7 C 6,7 C 68 % 1024,9 hPa 0,0 l/m 2 min 0 min 146 W/m 6,4 km/h (2 Bft) 97,87 %
15.02.2023 16:06 12,1 C 11,7 C 6,7 C 68 % 1024,8 hPa 0,0 l/m 2 min 0 min 148 W/m 6,4 km/h (2 Bft) 98,31 %
15.02.2023 16:08 12,1 C 11,7 C 6,7 C 68 % 1024,8 hPa 0,0 l/m 2 min 0 min 149 W/m 6,4 km/h (2 Bft) 100,00 %
15.02.2023 16:10 12,1 C 11,7 C 6,7 C 68 % 1024,8 hPa 0,0 l/m 2 min 0 min 144 W/m 6,4 km/h (2 Bft) 100,00 %
15.02.2023 16:12 12,0 C 11,7 C 6,7 C 68 % 1024,8 hPa 0,0 l/m 2 min 0 min 132 W/m 6,4 km/h (2 Bft) 100,00 %
15.02.2023 16:14 12,0 C 11,7 C 6,7 C 68 % 1024,9 hPa 0,0 l/m 2 min 0 min 120 W/m 6,4 km/h (2 Bft) 100,00 %
15.02.2023 16:16 11,9 C 11,7 C 6,7 C 68 % 1024,9 hPa 0,0 l/m 2 min 0 min 116 W/m 6,4 km/h (2 Bft) 91,30 %
15.02.2023 16:18 11,9 C 11,7 C 6,7 C 68 % 1024,9 hPa 0,0 l/m 2 min 0 min 110 W/m 9,7 km/h (2 Bft) 93,62 %
15.02.2023 16:20 11,9 C 11,7 C 6,7 C 68 % 1024,9 hPa 0,0 l/m 2 min 0 min 104 W/m 9,7 km/h (2 Bft) 97,87 %
15.02.2023 16:22 11,8 C 11,7 C 6,7 C 68 % 1024,9 hPa 0,0 l/m 2 min 0 min 100 W/m 6,4 km/h (2 Bft) 91,49 %
15.02.2023 16:24 11,8 C 11,7 C 6,7 C 68 % 1024,9 hPa 0,0 l/m 2 min 0 min 97 W/m 6,4 km/h (2 Bft) 95,74 %
15.02.2023 16:26 11,8 C 11,1 C 6,7 C 68 % 1024,9 hPa 0,0 l/m 2 min 0 min 94 W/m 16,1 km/h (3 Bft) 100,00 %
15.02.2023 16:28 11,8 C 11,1 C 6,7 C 68 % 1024,9 hPa 0,0 l/m 0 min 0 min 90 W/m 12,9 km/h (3 Bft) 100,00 %
15.02.2023 16:30 11,7 C 11,1 C 6,7 C 69 % 1024,9 hPa 0,0 l/m 0 min 0 min 86 W/m 6,4 km/h (2 Bft) 100,00 %
15.02.2023 16:32 11,7 C 11,1 C 6,7 C 69 % 1024,8 hPa 0,0 l/m 0 min 0 min 84 W/m 6,4 km/h (2 Bft) 100,00 %
15.02.2023 16:34 11,7 C 11,1 C 6,7 C 69 % 1024,8 hPa 0,0 l/m 0 min 0 min 80 W/m 9,7 km/h (2 Bft) 95,74 %
15.02.2023 16:36 11,7 C 11,1 C 6,7 C 69 % 1024,8 hPa 0,0 l/m 0 min 0 min 77 W/m 6,4 km/h (2 Bft) 97,87 %
15.02.2023 16:38 11,7 C 11,1 C 6,1 C 69 % 1024,8 hPa 0,0 l/m 0 min 0 min 73 W/m 6,4 km/h (2 Bft) 97,87 %
15.02.2023 16:40 11,6 C 11,1 C 6,1 C 69 % 1024,8 hPa 0,0 l/m 0 min 0 min 71 W/m 6,4 km/h (2 Bft) 97,87 %
15.02.2023 16:42 11,6 C 10,6 C 6,1 C 69 % 1024,9 hPa 0,0 l/m 0 min 0 min 68 W/m 12,9 km/h (3 Bft) 95,65 %
15.02.2023 16:44 11,6 C 10,6 C 6,1 C 69 % 1024,9 hPa 0,0 l/m 0 min 0 min 66 W/m 6,4 km/h (2 Bft) 95,74 %
15.02.2023 16:46 11,6 C 10,6 C 6,1 C 70 % 1024,9 hPa 0,0 l/m 0 min 0 min 64 W/m 6,4 km/h (2 Bft) 97,87 %
15.02.2023 16:48 11,6 C 10,6 C 6,1 C 70 % 1024,9 hPa 0,0 l/m 0 min 0 min 62 W/m 9,7 km/h (2 Bft) 97,87 %
15.02.2023 16:50 11,5 C 10,6 C 6,1 C 70 % 1024,8 hPa 0,0 l/m 0 min 0 min 60 W/m 6,4 km/h (2 Bft) 97,87 %
15.02.2023 16:52 11,5 C 10,6 C 6,1 C 70 % 1024,8 hPa 0,0 l/m 0 min 0 min 58 W/m 6,4 km/h (2 Bft) 93,62 %
15.02.2023 16:54 11,4 C 10,6 C 6,1 C 70 % 1024,8 hPa 0,0 l/m 0 min 0 min 54 W/m 3,2 km/h (1 Bft) 93,62 %
15.02.2023 16:56 11,4 C 10,6 C 6,1 C 70 % 1024,9 hPa 0,0 l/m 0 min 0 min 52 W/m 12,9 km/h (3 Bft) 95,65 %
15.02.2023 16:58 11,4 C 10,6 C 5,6 C 70 % 1024,9 hPa 0,0 l/m 0 min 0 min 50 W/m 3,2 km/h (1 Bft) 95,74 %
15.02.2023 17:00 11,4 C 10,6 C 5,6 C 70 % 1024,9 hPa 0,0 l/m 0 min 0 min 47 W/m 12,9 km/h (3 Bft) 93,62 %
15.02.2023 17:02 11,3 C 10,6 C 5,6 C 70 % 1024,9 hPa 0,0 l/m 0 min 0 min 44 W/m 6,4 km/h (2 Bft) 93,62 %
15.02.2023 17:04 11,3 C 10,0 C 5,6 C 70 % 1024,9 hPa 0,0 l/m 0 min 0 min 41 W/m 6,4 km/h (2 Bft) 93,62 %
15.02.2023 17:08 11,2 C 10,0 C 5,6 C 70 % 1024,9 hPa 0,0 l/m 0 min 0 min 37 W/m 9,7 km/h (2 Bft) 93,62 %
15.02.2023 17:10 11,2 C 10,0 C 5,6 C 71 % 1024,8 hPa 0,0 l/m 0 min 0 min 33 W/m 6,4 km/h (2 Bft) 97,87 %
15.02.2023 17:12 11,2 C 10,0 C 5,6 C 71 % 1024,8 hPa 0,0 l/m 0 min 0 min 31 W/m 12,9 km/h (3 Bft) 97,83 %
15.02.2023 17:14 11,1 C 10,0 C 5,6 C 71 % 1024,8 hPa 0,0 l/m 0 min 0 min 28 W/m 6,4 km/h (2 Bft) 97,87 %
15.02.2023 17:16 11,1 C 10,0 C 5,6 C 71 % 1024,9 hPa 0,0 l/m 0 min 0 min 26 W/m 3,2 km/h (1 Bft) 95,74 %
15.02.2023 17:18 11,0 C 10,0 C 5,6 C 71 % 1024,9 hPa 0,0 l/m 0 min 0 min 24 W/m 6,4 km/h (2 Bft) 97,87 %
15.02.2023 17:20 10,9 C 9,4 C 5,6 C 71 % 1024,9 hPa 0,0 l/m 0 min 0 min 22 W/m 3,2 km/h (1 Bft) 95,83 %
15.02.2023 17:22 10,9 C 9,4 C 5,6 C 71 % 1024,8 hPa 0,0 l/m 0 min 0 min 19 W/m 3,2 km/h (1 Bft) 96,08 %
15.02.2023 17:24 10,9 C 9,4 C 5,6 C 72 % 1024,9 hPa 0,0 l/m 0 min 0 min 19 W/m 12,9 km/h (3 Bft) 97,87 %
15.02.2023 17:26 10,8 C 9,4 C 5,6 C 72 % 1024,8 hPa 0,0 l/m 0 min 0 min 17 W/m 6,4 km/h (2 Bft) 95,65 %
15.02.2023 17:28 10,8 C 9,4 C 5,0 C 72 % 1024,8 hPa 0,0 l/m 0 min 0 min 15 W/m 9,7 km/h (2 Bft) 97,87 %
15.02.2023 17:30 10,8 C 9,4 C 5,0 C 72 % 1024,8 hPa 0,0 l/m 0 min 0 min 13 W/m 9,7 km/h (2 Bft) 100,00 %
15.02.2023 17:32 10,7 C 9,4 C 5,0 C 72 % 1024,8 hPa 0,0 l/m 0 min 0 min 12 W/m 6,4 km/h (2 Bft) 100,00 %
15.02.2023 17:34 10,7 C 9,4 C 5,0 C 72 % 1024,9 hPa 0,0 l/m 0 min 0 min 11 W/m 6,4 km/h (2 Bft) 100,00 %
15.02.2023 17:36 10,6 C 9,4 C 5,0 C 72 % 1024,8 hPa 0,0 l/m 0 min 0 min 9 W/m 6,4 km/h (2 Bft) 100,00 %
15.02.2023 17:38 10,6 C 8,9 C 5,0 C 72 % 1024,8 hPa 0,0 l/m 0 min 0 min 8 W/m 6,4 km/h (2 Bft) 100,00 %
15.02.2023 17:40 10,6 C 8,9 C 5,0 C 73 % 1024,8 hPa 0,0 l/m 0 min 0 min 6 W/m 6,4 km/h (2 Bft) 100,00 %
15.02.2023 17:42 10,5 C 8,9 C 5,0 C 73 % 1024,8 hPa 0,0 l/m 0 min 0 min 5 W/m 3,2 km/h (1 Bft) 100,00 %
15.02.2023 17:44 10,4 C 8,9 C 5,0 C 73 % 1024,8 hPa 0,0 l/m 0 min 0 min 4 W/m 3,2 km/h (1 Bft) 100,00 %
15.02.2023 17:46 10,4 C 8,9 C 5,0 C 73 % 1024,7 hPa 0,0 l/m 0 min 0 min 0 W/m 6,4 km/h (2 Bft) 97,87 %
15.02.2023 17:48 10,4 C 8,9 C 5,0 C 73 % 1024,8 hPa 0,0 l/m 0 min 0 min 0 W/m 6,4 km/h (2 Bft) 100,00 %
15.02.2023 17:50 10,3 C 8,9 C 5,0 C 73 % 1024,7 hPa 0,0 l/m 0 min 0 min 0 W/m 6,4 km/h (2 Bft) 100,00 %
15.02.2023 17:52 10,3 C 8,9 C 5,0 C 73 % 1024,7 hPa 0,0 l/m 0 min 0 min 0 W/m 6,4 km/h (2 Bft) 100,00 %
15.02.2023 17:54 10,2 C 8,9 C 5,0 C 73 % 1024,6 hPa 0,0 l/m 0 min 0 min 0 W/m 9,7 km/h (2 Bft) 100,00 %
15.02.2023 17:56 10,2 C 8,9 C 5,0 C 74 % 1024,8 hPa 0,0 l/m 0 min 0 min 0 W/m 12,9 km/h (3 Bft) 97,87 %
15.02.2023 17:58 10,1 C 8,9 C 4,4 C 74 % 1024,8 hPa 0,0 l/m 0 min 0 min 0 W/m 6,4 km/h (2 Bft) 95,74 %
15.02.2023 18:00 10,1 C 8,9 C 5,0 C 74 % 1024,7 hPa 0,0 l/m 0 min 0 min 0 W/m 6,4 km/h (2 Bft) 95,74 %
15.02.2023 18:02 10,1 C 8,9 C 4,4 C 74 % 1024,8 hPa 0,0 l/m 0 min 0 min 0 W/m 12,9 km/h (3 Bft) 97,87 %
15.02.2023 18:04 10,0 C 8,3 C 4,4 C 74 % 1024,8 hPa 0,0 l/m 0 min 0 min 0 W/m 6,4 km/h (2 Bft) 93,62 %
15.02.2023 18:07 9,9 C 8,3 C 4,4 C 74 % 1024,9 hPa 0,0 l/m 0 min 0 min 0 W/m 12,9 km/h (3 Bft) 98,57 %
15.02.2023 18:08 9,9 C 8,3 C 4,4 C 74 % 1024,9 hPa 0,0 l/m 0 min 0 min 0 W/m 6,4 km/h (2 Bft) 95,65 %
15.02.2023 18:12 9,8 C 8,3 C 4,4 C 75 % 1024,9 hPa 0,0 l/m 0 min 0 min 0 W/m 6,4 km/h (2 Bft) 98,15 %
15.02.2023 18:14 9,8 C 8,3 C 4,4 C 75 % 1024,9 hPa 0,0 l/m 0 min 0 min 0 W/m 6,4 km/h (2 Bft) 97,87 %
15.02.2023 18:16 9,8 C 8,3 C 4,4 C 75 % 1024,9 hPa 0,0 l/m 0 min 0 min 0 W/m 6,4 km/h (2 Bft) 95,65 %
15.02.2023 18:18 9,7 C 8,3 C 4,4 C 75 % 1024,9 hPa 0,0 l/m 0 min 0 min 0 W/m 6,4 km/h (2 Bft) 97,87 %
15.02.2023 18:20 9,7 C 8,3 C 4,4 C 75 % 1024,9 hPa 0,0 l/m 0 min 0 min 0 W/m 6,4 km/h (2 Bft) 95,74 %
15.02.2023 18:22 9,7 C 8,3 C 4,4 C 75 % 1025,0 hPa 0,0 l/m 0 min 0 min 0 W/m 3,2 km/h (1 Bft) 97,87 %
15.02.2023 18:24 9,7 C 8,3 C 4,4 C 75 % 1025,0 hPa 0,0 l/m 0 min 0 min 0 W/m 9,7 km/h (2 Bft) 95,74 %
15.02.2023 18:26 9,6 C 8,3 C 4,4 C 75 % 1025,0 hPa 0,0 l/m 0 min 0 min 0 W/m 3,2 km/h (1 Bft) 97,87 %
15.02.2023 18:28 9,6 C 8,3 C 4,4 C 76 % 1025,0 hPa 0,0 l/m 0 min 0 min 0 W/m 6,4 km/h (2 Bft) 95,74 %
15.02.2023 18:30 9,6 C 8,3 C 4,4 C 76 % 1025,1 hPa 0,0 l/m 0 min 0 min 0 W/m 6,4 km/h (2 Bft) 97,96 %
15.02.2023 18:32 9,6 C 8,3 C 4,4 C 76 % 1025,1 hPa 0,0 l/m 0 min 0 min 0 W/m 6,4 km/h (2 Bft) 95,74 %
15.02.2023 18:34 9,5 C 8,3 C 4,4 C 76 % 1025,1 hPa 0,0 l/m 0 min 0 min 0 W/m 6,4 km/h (2 Bft) 95,74 %
15.02.2023 18:36 9,4 C 8,3 C 4,4 C 76 % 1025,0 hPa 0,0 l/m 0 min 0 min 0 W/m 9,7 km/h (2 Bft) 95,65 %
15.02.2023 18:38 9,4 C 8,3 C 4,4 C 76 % 1025,1 hPa 0,0 l/m 0 min 0 min 0 W/m 6,4 km/h (2 Bft) 89,36 %
15.02.2023 18:40 9,4 C 8,3 C 4,4 C 76 % 1025,0 hPa 0,0 l/m 0 min 0 min 0 W/m 6,4 km/h (2 Bft) 95,83 %
15.02.2023 18:42 9,4 C 8,3 C 4,4 C 76 % 1025,0 hPa 0,0 l/m 0 min 0 min 0 W/m 6,4 km/h (2 Bft) 93,48 %
15.02.2023 18:44 9,3 C 8,3 C 4,4 C 77 % 1025,0 hPa 0,0 l/m 0 min 0 min 0 W/m 6,4 km/h (2 Bft) 95,74 %
15.02.2023 18:46 9,3 C 8,3 C 4,4 C 76 % 1025,1 hPa 0,0 l/m 0 min 0 min 0 W/m 6,4 km/h (2 Bft) 93,62 %
15.02.2023 18:48 9,3 C 7,8 C 3,9 C 77 % 1025,1 hPa 0,0 l/m 0 min 0 min 0 W/m 6,4 km/h (2 Bft) 95,83 %
15.02.2023 18:50 9,2 C 7,8 C 3,9 C 77 % 1025,1 hPa 0,0 l/m 0 min 0 min 0 W/m 6,4 km/h (2 Bft) 95,74 %
15.02.2023 18:52 9,2 C 7,8 C 3,9 C 77 % 1025,2 hPa 0,0 l/m 0 min 0 min 0 W/m 6,4 km/h (2 Bft) 95,74 %
15.02.2023 18:54 9,2 C 7,8 C 3,9 C 77 % 1025,2 hPa 0,0 l/m 0 min 0 min 0 W/m 3,2 km/h (1 Bft) 97,87 %
15.02.2023 18:56 9,2 C 7,8 C 3,9 C 77 % 1025,1 hPa 0,0 l/m 0 min 0 min 0 W/m 6,4 km/h (2 Bft) 95,74 %
15.02.2023 18:58 9,2 C 7,8 C 3,9 C 77 % 1025,1 hPa 0,0 l/m 0 min 0 min 0 W/m 6,4 km/h (2 Bft) 95,74 %
15.02.2023 19:00 9,1 C 7,8 C 3,9 C 77 % 1025,1 hPa 0,0 l/m 0 min 0 min 0 W/m 6,4 km/h (2 Bft) 95,74 %
15.02.2023 19:02 9,1 C 7,8 C 3,9 C 77 % 1025,2 hPa 0,0 l/m 0 min 0 min 0 W/m 6,4 km/h (2 Bft) 93,48 %
15.02.2023 19:04 9,1 C 7,8 C 3,9 C 78 % 1025,2 hPa 0,0 l/m 0 min 0 min 0 W/m 6,4 km/h (2 Bft) 97,87 %
15.02.2023 19:06 9,1 C 7,8 C 3,9 C 77 % 1025,2 hPa 0,0 l/m 0 min 0 min 0 W/m 6,4 km/h (2 Bft) 95,74 %
15.02.2023 19:08 9,0 C 7,8 C 3,9 C 78 % 1025,2 hPa 0,0 l/m 0 min 0 min 0 W/m 6,4 km/h (2 Bft) 97,87 %
15.02.2023 19:10 9,0 C 7,8 C 3,9 C 78 % 1025,2 hPa 0,0 l/m 0 min 0 min 0 W/m 6,4 km/h (2 Bft) 95,74 %
15.02.2023 19:12 8,9 C 7,8 C 3,9 C 78 % 1025,2 hPa 0,0 l/m 0 min 0 min 0 W/m 3,2 km/h (1 Bft) 93,62 %
15.02.2023 19:14 8,9 C 7,8 C 3,9 C 78 % 1025,2 hPa 0,0 l/m 0 min 0 min 0 W/m 3,2 km/h (1 Bft) 53,49 %
15.02.2023 19:16 8,9 C 7,8 C 3,9 C 78 % 1025,2 hPa 0,0 l/m 0 min 0 min 0 W/m 6,4 km/h (2 Bft) 100,00 %
15.02.2023 19:18 8,9 C 7,8 C 3,9 C 78 % 1025,1 hPa 0,0 l/m 0 min 0 min 0 W/m 3,2 km/h (1 Bft) 91,49 %
15.02.2023 19:20 8,8 C 7,8 C 3,9 C 78 % 1025,2 hPa 0,0 l/m 0 min 0 min 0 W/m 3,2 km/h (1 Bft) 92,73 %
15.02.2023 19:22 8,8 C 7,8 C 3,9 C 79 % 1025,2 hPa 0,0 l/m 0 min 0 min 0 W/m 3,2 km/h (1 Bft) 93,62 %
15.02.2023 19:24 8,8 C 7,8 C 3,9 C 78 % 1025,2 hPa 0,0 l/m 0 min 0 min 0 W/m 3,2 km/h (1 Bft) 89,36 %
15.02.2023 19:26 8,8 C 7,8 C 3,9 C 78 % 1025,2 hPa 0,0 l/m 0 min 0 min 0 W/m 3,2 km/h (1 Bft) 76,09 %
15.02.2023 19:28 8,8 C 7,8 C 3,9 C 78 % 1025,3 hPa 0,0 l/m 0 min 0 min 0 W/m 3,2 km/h (1 Bft) 72,34 %
15.02.2023 19:30 8,8 C 7,2 C 3,3 C 79 % 1025,2 hPa 0,0 l/m 0 min 0 min 0 W/m 3,2 km/h (1 Bft) 82,98 %
15.02.2023 19:32 8,7 C 7,2 C 3,3 C 79 % 1025,3 hPa 0,0 l/m 0 min 0 min 0 W/m 6,4 km/h (2 Bft) 87,23 %
15.02.2023 19:34 8,7 C 7,2 C 3,3 C 79 % 1025,2 hPa 0,0 l/m 0 min 0 min 0 W/m 6,4 km/h (2 Bft) 87,23 %
15.02.2023 19:36 8,7 C 7,2 C 3,3 C 79 % 1025,2 hPa 0,0 l/m 0 min 0 min 0 W/m 6,4 km/h (2 Bft) 74,47 %
15.02.2023 19:38 8,6 C 7,2 C 3,3 C 79 % 1025,2 hPa 0,0 l/m 0 min 0 min 0 W/m 6,4 km/h (2 Bft) 87,23 %
15.02.2023 19:40 8,6 C 7,2 C 3,3 C 79 % 1025,2 hPa 0,0 l/m 0 min 0 min 0 W/m 6,4 km/h (2 Bft) 80,43 %
15.02.2023 19:42 8,6 C 7,2 C 3,3 C 79 % 1025,1 hPa 0,0 l/m 0 min 0 min 0 W/m 3,2 km/h (1 Bft) 85,11 %
15.02.2023 19:44 8,6 C 7,2 C 3,3 C 79 % 1025,2 hPa 0,0 l/m 0 min 0 min 0 W/m 12,9 km/h (3 Bft) 91,49 %
15.02.2023 19:46 8,5 C 7,2 C 3,3 C 79 % 1025,1 hPa 0,0 l/m 0 min 0 min 0 W/m 6,4 km/h (2 Bft) 89,36 %
15.02.2023 19:48 8,4 C 7,2 C 3,3 C 79 % 1025,1 hPa 0,0 l/m 0 min 0 min 0 W/m 12,9 km/h (3 Bft) 85,11 %
15.02.2023 19:50 8,4 C 7,2 C 3,3 C 79 % 1025,2 hPa 0,0 l/m 0 min 0 min 0 W/m 6,4 km/h (2 Bft) 82,98 %
15.02.2023 19:52 8,4 C 7,2 C 3,3 C 79 % 1025,1 hPa 0,0 l/m 0 min 0 min 0 W/m 6,4 km/h (2 Bft) 78,26 %
15.02.2023 19:54 8,3 C 7,2 C 3,3 C 79 % 1025,1 hPa 0,0 l/m 0 min 0 min 0 W/m 6,4 km/h (2 Bft) 63,83 %
15.02.2023 19:56 8,3 C 7,2 C 3,3 C 80 % 1025,2 hPa 0,0 l/m 0 min 0 min 0 W/m 9,7 km/h (2 Bft) 72,34 %
15.02.2023 19:58 8,3 C 7,2 C 3,3 C 80 % 1025,1 hPa 0,0 l/m 0 min 0 min 0 W/m 6,4 km/h (2 Bft) 80,85 %
15.02.2023 20:00 8,2 C 7,2 C 3,3 C 80 % 1025,1 hPa 0,0 l/m 0 min 0 min 0 W/m 6,4 km/h (2 Bft) 21,28 %
15.02.2023 20:02 8,2 C 7,2 C 3,3 C 80 % 1025,1 hPa 0,0 l/m 0 min 0 min 0 W/m 6,4 km/h (2 Bft) 58,00 %
15.02.2023 20:04 8,2 C 7,2 C 3,3 C 80 % 1025,1 hPa 0,0 l/m 0 min 0 min 0 W/m 6,4 km/h (2 Bft) 38,30 %
15.02.2023 20:06 8,1 C 6,7 C 3,3 C 80 % 1025,2 hPa 0,0 l/m 0 min 0 min 0 W/m 6,4 km/h (2 Bft) 86,96 %
15.02.2023 20:08 8,1 C 6,7 C 3,3 C 80 % 1025,1 hPa 0,0 l/m 0 min 0 min 0 W/m 6,4 km/h (2 Bft) 85,11 %
15.02.2023 20:10 8,1 C 6,7 C 3,3 C 80 % 1025,2 hPa 0,0 l/m 0 min 0 min 0 W/m 6,4 km/h (2 Bft) 89,36 %
15.02.2023 20:12 8,0 C 6,7 C 3,3 C 80 % 1025,2 hPa 0,0 l/m 0 min 0 min 0 W/m 9,7 km/h (2 Bft) 93,62 %
15.02.2023 20:14 8,0 C 6,7 C 3,3 C 81 % 1025,2 hPa 0,0 l/m 0 min 0 min 0 W/m 6,4 km/h (2 Bft) 94,29 %
15.02.2023 20:16 7,9 C 6,7 C 3,3 C 81 % 1025,2 hPa 0,0 l/m 0 min 0 min 0 W/m 6,4 km/h (2 Bft) 95,74 %
15.02.2023 20:18 7,9 C 6,7 C 2,8 C 81 % 1025,2 hPa 0,0 l/m 0 min 0 min 0 W/m 6,4 km/h (2 Bft) 89,36 %
15.02.2023 20:20 7,9 C 6,7 C 2,8 C 81 % 1025,2 hPa 0,0 l/m 0 min 0 min 0 W/m 3,2 km/h (1 Bft) 93,22 %
15.02.2023 20:22 7,9 C 6,7 C 2,8 C 81 % 1025,2 hPa 0,0 l/m 0 min 0 min 0 W/m 3,2 km/h (1 Bft) 85,11 %
15.02.2023 20:24 7,8 C 6,7 C 2,8 C 81 % 1025,2 hPa 0,0 l/m 0 min 0 min 0 W/m 3,2 km/h (1 Bft) 78,26 %
15.02.2023 20:26 7,8 C 6,7 C 2,8 C 81 % 1025,2 hPa 0,0 l/m 0 min 0 min 0 W/m 6,4 km/h (2 Bft) 80,56 %
15.02.2023 20:28 7,8 C 6,7 C 2,8 C 81 % 1025,2 hPa 0,0 l/m 0 min 0 min 0 W/m 3,2 km/h (1 Bft) 96,55 %
15.02.2023 20:30 7,8 C 6,7 C 2,8 C 81 % 1025,3 hPa 0,0 l/m 0 min 0 min 0 W/m 3,2 km/h (1 Bft) 97,14 %
15.02.2023 20:32 7,7 C 6,7 C 2,8 C 81 % 1025,4 hPa 0,0 l/m 0 min 0 min 0 W/m 0,0 km/h (0 Bft) 97,87 %
15.02.2023 20:34 7,7 C 6,7 C 2,2 C 81 % 1025,4 hPa 0,0 l/m 0 min 0 min 0 W/m 0,0 km/h (0 Bft) 98,18 %
15.02.2023 20:36 7,7 C 6,7 C 2,2 C 81 % 1025,4 hPa 0,0 l/m 0 min 0 min 0 W/m 3,2 km/h (1 Bft) 93,48 %
15.02.2023 20:38 7,7 C 6,7 C 2,2 C 81 % 1025,3 hPa 0,0 l/m 0 min 0 min 0 W/m 3,2 km/h (1 Bft) 89,36 %
15.02.2023 20:40 7,6 C 6,1 C 2,2 C 81 % 1025,4 hPa 0,0 l/m 0 min 0 min 0 W/m 3,2 km/h (1 Bft) 68,09 %
15.02.2023 20:42 7,6 C 6,1 C 2,2 C 81 % 1025,3 hPa 0,0 l/m 0 min 0 min 0 W/m 6,4 km/h (2 Bft) 87,50 %
15.02.2023 20:44 7,6 C 6,1 C 2,2 C 81 % 1025,3 hPa 0,0 l/m 0 min 0 min 0 W/m 9,7 km/h (2 Bft) 84,00 %
15.02.2023 20:46 7,6 C 6,1 C 2,8 C 81 % 1025,3 hPa 0,0 l/m 0 min 0 min 0 W/m 3,2 km/h (1 Bft) 95,65 %
15.02.2023 20:48 7,5 C 6,1 C 2,2 C 81 % 1025,4 hPa 0,0 l/m 0 min 0 min 0 W/m 3,2 km/h (1 Bft) 82,98 %
15.02.2023 20:50 7,4 C 6,1 C 2,2 C 82 % 1025,3 hPa 0,0 l/m 0 min 0 min 0 W/m 3,2 km/h (1 Bft) 91,49 %
15.02.2023 20:52 7,4 C 6,1 C 2,2 C 82 % 1025,4 hPa 0,0 l/m 0 min 0 min 0 W/m 6,4 km/h (2 Bft) 87,23 %
15.02.2023 20:54 7,4 C 6,1 C 2,2 C 82 % 1025,3 hPa 0,0 l/m 0 min 0 min 0 W/m 6,4 km/h (2 Bft) 81,25 %
15.02.2023 20:56 7,3 C 6,1 C 2,2 C 82 % 1025,3 hPa 0,0 l/m 0 min 0 min 0 W/m 6,4 km/h (2 Bft) 85,11 %
15.02.2023 20:58 7,3 C 6,1 C 2,2 C 82 % 1025,3 hPa 0,0 l/m 0 min 0 min 0 W/m 6,4 km/h (2 Bft) 93,62 %
15.02.2023 21:00 7,3 C 6,1 C 2,2 C 82 % 1025,3 hPa 0,0 l/m 0 min 0 min 0 W/m 6,4 km/h (2 Bft) 97,87 %
15.02.2023 21:02 7,2 C 6,1 C 2,2 C 82 % 1025,3 hPa 0,0 l/m 0 min 0 min 0 W/m 6,4 km/h (2 Bft) 91,49 %
15.02.2023 21:04 7,2 C 6,1 C 2,2 C 82 % 1025,3 hPa 0,0 l/m 0 min 0 min 0 W/m 6,4 km/h (2 Bft) 82,61 %
15.02.2023 21:06 7,2 C 6,1 C 2,2 C 82 % 1025,4 hPa 0,0 l/m 0 min 0 min 0 W/m 6,4 km/h (2 Bft) 91,49 %
15.02.2023 21:08 7,2 C 6,1 C 2,2 C 82 % 1025,4 hPa 0,0 l/m 0 min 0 min 0 W/m 6,4 km/h (2 Bft) 68,57 %
15.02.2023 21:10 7,1 C 6,1 C 2,2 C 83 % 1025,4 hPa 0,0 l/m 0 min 0 min 0 W/m 6,4 km/h (2 Bft) 76,60 %
15.02.2023 21:12 7,1 C 6,1 C 2,2 C 82 % 1025,4 hPa 0,0 l/m 0 min 0 min 0 W/m 12,9 km/h (3 Bft) 72,34 %
15.02.2023 21:14 7,1 C 6,1 C 2,2 C 83 % 1025,5 hPa 0,0 l/m 0 min 0 min 0 W/m 12,9 km/h (3 Bft) 63,83 %
15.02.2023 21:16 7,0 C 6,1 C 2,2 C 83 % 1025,5 hPa 0,0 l/m 0 min 0 min 0 W/m 6,4 km/h (2 Bft) 63,83 %
15.02.2023 21:18 7,0 C 6,1 C 2,2 C 83 % 1025,5 hPa 0,0 l/m 0 min 0 min 0 W/m 6,4 km/h (2 Bft) 85,11 %
15.02.2023 21:20 6,9 C 6,1 C 2,2 C 83 % 1025,5 hPa 0,0 l/m 0 min 0 min 0 W/m 6,4 km/h (2 Bft) 72,34 %
15.02.2023 21:22 6,9 C 5,6 C 2,2 C 83 % 1025,5 hPa 0,0 l/m 0 min 0 min 0 W/m 3,2 km/h (1 Bft) 81,63 %
15.02.2023 21:24 6,9 C 5,6 C 2,2 C 83 % 1025,6 hPa 0,0 l/m 0 min 0 min 0 W/m 6,4 km/h (2 Bft) 95,74 %
15.02.2023 21:26 6,9 C 5,6 C 2,2 C 83 % 1025,6 hPa 0,0 l/m 0 min 0 min 0 W/m 6,4 km/h (2 Bft) 86,00 %
15.02.2023 21:28 6,8 C 5,6 C 2,2 C 83 % 1025,6 hPa 0,0 l/m 0 min 0 min 0 W/m 6,4 km/h (2 Bft) 81,13 %
15.02.2023 21:30 6,8 C 5,6 C 2,2 C 83 % 1025,6 hPa 0,0 l/m 0 min 0 min 0 W/m 6,4 km/h (2 Bft) 78,72 %
15.02.2023 21:32 6,8 C 5,6 C 2,2 C 83 % 1025,6 hPa 0,0 l/m 0 min 0 min 0 W/m 6,4 km/h (2 Bft) 78,72 %
15.02.2023 21:34 6,7 C 5,6 C 2,2 C 83 % 1025,6 hPa 0,0 l/m 0 min 0 min 0 W/m 6,4 km/h (2 Bft) 74,47 %
15.02.2023 21:36 6,7 C 5,6 C 2,2 C 84 % 1025,6 hPa 0,0 l/m 0 min 0 min 0 W/m 12,9 km/h (3 Bft) 72,34 %
15.02.2023 21:38 6,7 C 5,6 C 2,2 C 84 % 1025,7 hPa 0,0 l/m 0 min 0 min 0 W/m 12,9 km/h (3 Bft) 65,79 %
15.02.2023 21:40 6,6 C 5,6 C 2,2 C 84 % 1025,6 hPa 0,0 l/m 0 min 0 min 0 W/m 6,4 km/h (2 Bft) 85,11 %
15.02.2023 21:42 6,6 C 5,6 C 2,2 C 84 % 1025,6 hPa 0,0 l/m 0 min 0 min 0 W/m 6,4 km/h (2 Bft) 63,04 %
15.02.2023 21:44 6,6 C 5,6 C 2,2 C 84 % 1025,6 hPa 0,0 l/m 0 min 0 min 0 W/m 6,4 km/h (2 Bft) 91,30 %
15.02.2023 21:46 6,6 C 5,6 C 2,2 C 84 % 1025,6 hPa 0,0 l/m 0 min 0 min 0 W/m 12,9 km/h (3 Bft) 93,62 %
15.02.2023 21:48 6,5 C 5,6 C 2,2 C 84 % 1025,6 hPa 0,0 l/m 0 min 0 min 0 W/m 6,4 km/h (2 Bft) 89,36 %
15.02.2023 21:50 6,5 C 5,6 C 2,2 C 84 % 1025,6 hPa 0,0 l/m 0 min 0 min 0 W/m 6,4 km/h (2 Bft) 53,19 %
15.02.2023 21:52 6,5 C 5,6 C 2,2 C 84 % 1025,6 hPa 0,0 l/m 0 min 0 min 0 W/m 6,4 km/h (2 Bft) 36,17 %
15.02.2023 21:54 6,5 C 5,6 C 2,2 C 84 % 1025,6 hPa 0,0 l/m 0 min 0 min 0 W/m 12,9 km/h (3 Bft) 44,68 %
15.02.2023 21:56 6,5 C 5,6 C 1,7 C 84 % 1025,7 hPa 0,0 l/m 0 min 0 min 0 W/m 6,4 km/h (2 Bft) 13,33 %
15.02.2023 21:58 6,4 C 5,6 C 1,7 C 84 % 1025,7 hPa 0,0 l/m 0 min 0 min 0 W/m 12,9 km/h (3 Bft) 57,45 %
15.02.2023 22:00 6,4 C 5,6 C 1,7 C 85 % 1025,7 hPa 0,0 l/m 0 min 0 min 0 W/m 6,4 km/h (2 Bft) 31,91 %
15.02.2023 22:02 6,4 C 5,6 C 1,7 C 85 % 1025,7 hPa 0,0 l/m 0 min 0 min 0 W/m 6,4 km/h (2 Bft) 31,91 %
15.02.2023 22:04 6,3 C 5,6 C 1,7 C 85 % 1025,7 hPa 0,0 l/m 0 min 0 min 0 W/m 12,9 km/h (3 Bft) 27,66 %
15.02.2023 22:06 6,3 C 5,6 C 1,7 C 85 % 1025,7 hPa 0,0 l/m 0 min 0 min 0 W/m 6,4 km/h (2 Bft) 17,24 %
15.02.2023 22:08 6,3 C 5,6 C 1,7 C 85 % 1025,8 hPa 0,0 l/m 0 min 0 min 0 W/m 9,7 km/h (2 Bft) 19,44 %
15.02.2023 22:10 6,3 C 5,6 C 1,7 C 85 % 1025,8 hPa 0,0 l/m 0 min 0 min 0 W/m 12,9 km/h (3 Bft) 63,04 %
15.02.2023 22:12 6,2 C 5,0 C 1,7 C 85 % 1025,8 hPa 0,0 l/m 0 min 0 min 0 W/m 6,4 km/h (2 Bft) 74,47 %
15.02.2023 22:14 6,2 C 5,0 C 1,7 C 85 % 1025,8 hPa 0,0 l/m 0 min 0 min 0 W/m 6,4 km/h (2 Bft) 60,00 %
15.02.2023 22:16 6,2 C 5,0 C 1,7 C 85 % 1025,8 hPa 0,0 l/m 0 min 0 min 0 W/m 6,4 km/h (2 Bft) 65,96 %
15.02.2023 22:18 6,2 C 5,0 C 1,7 C 85 % 1025,8 hPa 0,0 l/m 0 min 0 min 0 W/m 6,4 km/h (2 Bft) 65,96 %
15.02.2023 22:20 6,2 C 5,0 C 1,7 C 85 % 1025,7 hPa 0,0 l/m 0 min 0 min 0 W/m 6,4 km/h (2 Bft) 53,19 %
15.02.2023 22:22 6,1 C 5,0 C 1,7 C 85 % 1025,7 hPa 0,0 l/m 0 min 0 min 0 W/m 6,4 km/h (2 Bft) 61,70 %
15.02.2023 22:24 6,1 C 5,0 C 1,7 C 85 % 1025,7 hPa 0,0 l/m 0 min 0 min 0 W/m 6,4 km/h (2 Bft) 56,52 %
15.02.2023 22:26 6,1 C 5,0 C 1,7 C 85 % 1025,7 hPa 0,0 l/m 0 min 0 min 0 W/m 16,1 km/h (3 Bft) 55,32 %
15.02.2023 22:28 6,1 C 5,0 C 1,7 C 85 % 1025,7 hPa 0,0 l/m 0 min 0 min 0 W/m 6,4 km/h (2 Bft) 48,94 %
15.02.2023 22:30 6,0 C 5,0 C 1,7 C 85 % 1025,7 hPa 0,0 l/m 0 min 0 min 0 W/m 6,4 km/h (2 Bft) 59,57 %
15.02.2023 22:32 5,9 C 5,0 C 1,7 C 85 % 1025,7 hPa 0,0 l/m 0 min 0 min 0 W/m 6,4 km/h (2 Bft) 53,19 %
15.02.2023 22:34 5,9 C 5,0 C 1,7 C 85 % 1025,7 hPa 0,0 l/m 0 min 0 min 0 W/m 6,4 km/h (2 Bft) 29,79 %
15.02.2023 22:36 5,9 C 5,0 C 1,7 C 85 % 1025,7 hPa 0,0 l/m 0 min 0 min 0 W/m 6,4 km/h (2 Bft) 63,04 %
15.02.2023 22:38 5,9 C 5,0 C 1,7 C 86 % 1025,7 hPa 0,0 l/m 0 min 0 min 0 W/m 6,4 km/h (2 Bft) 17,50 %
15.02.2023 22:40 5,8 C 5,0 C 1,7 C 86 % 1025,6 hPa 0,0 l/m 0 min 0 min 0 W/m 6,4 km/h (2 Bft) 48,15 %
15.02.2023 22:42 5,8 C 5,0 C 1,1 C 86 % 1025,6 hPa 0,0 l/m 0 min 0 min 0 W/m 12,9 km/h (3 Bft) 93,62 %
15.02.2023 22:44 5,8 C 5,0 C 1,1 C 86 % 1025,7 hPa 0,0 l/m 0 min 0 min 0 W/m 12,9 km/h (3 Bft) 87,23 %
15.02.2023 22:46 5,7 C 5,0 C 1,1 C 86 % 1025,6 hPa 0,0 l/m 0 min 0 min 0 W/m 12,9 km/h (3 Bft) 87,23 %
15.02.2023 22:48 5,7 C 5,0 C 1,1 C 86 % 1025,6 hPa 0,0 l/m 0 min 0 min 0 W/m 9,7 km/h (2 Bft) 93,62 %
15.02.2023 22:50 5,7 C 5,0 C 1,1 C 86 % 1025,6 hPa 0,0 l/m 0 min 0 min 0 W/m 6,4 km/h (2 Bft) 91,49 %
15.02.2023 22:52 5,7 C 5,0 C 1,1 C 86 % 1025,6 hPa 0,0 l/m 0 min 0 min 0 W/m 12,9 km/h (3 Bft) 95,74 %
15.02.2023 22:54 5,6 C 5,0 C 1,1 C 86 % 1025,6 hPa 0,0 l/m 0 min 0 min 0 W/m 9,7 km/h (2 Bft) 76,60 %
15.02.2023 22:56 5,6 C 5,0 C 1,1 C 86 % 1025,5 hPa 0,0 l/m 0 min 0 min 0 W/m 6,4 km/h (2 Bft) 52,17 %
15.02.2023 22:58 5,6 C 4,4 C 1,1 C 86 % 1025,5 hPa 0,0 l/m 0 min 0 min 0 W/m 12,9 km/h (3 Bft) 85,37 %
15.02.2023 23:00 5,6 C 4,4 C 1,1 C 87 % 1025,5 hPa 0,0 l/m 0 min 0 min 0 W/m 12,9 km/h (3 Bft) 93,62 %
15.02.2023 23:02 5,6 C 5,0 C 1,1 C 87 % 1025,5 hPa 0,0 l/m 0 min 0 min 0 W/m 12,9 km/h (3 Bft) 65,96 %
15.02.2023 23:04 5,6 C 4,4 C 1,1 C 86 % 1025,5 hPa 0,0 l/m 0 min 0 min 0 W/m 9,7 km/h (2 Bft) 53,19 %
15.02.2023 23:06 5,5 C 4,4 C 1,1 C 87 % 1025,4 hPa 0,0 l/m 0 min 0 min 0 W/m 16,1 km/h (3 Bft) 55,17 %
15.02.2023 23:08 5,5 C 4,4 C 1,1 C 87 % 1025,5 hPa 0,0 l/m 0 min 0 min 0 W/m 16,1 km/h (3 Bft) 86,11 %
15.02.2023 23:10 5,5 C 4,4 C 1,1 C 87 % 1025,4 hPa 0,0 l/m 0 min 0 min 0 W/m 6,4 km/h (2 Bft) 29,55 %
15.02.2023 23:12 5,4 C 4,4 C 1,1 C 87 % 1025,4 hPa 0,0 l/m 0 min 0 min 0 W/m 6,4 km/h (2 Bft) 46,67 %
15.02.2023 23:14 5,4 C 4,4 C 1,1 C 87 % 1025,4 hPa 0,0 l/m 0 min 0 min 0 W/m 12,9 km/h (3 Bft) 97,87 %
15.02.2023 23:16 5,4 C 4,4 C 1,1 C 87 % 1025,5 hPa 0,0 l/m 0 min 0 min 0 W/m 12,9 km/h (3 Bft) 95,74 %
15.02.2023 23:18 5,4 C 4,4 C 1,1 C 87 % 1025,5 hPa 0,0 l/m 0 min 0 min 0 W/m 6,4 km/h (2 Bft) 89,36 %
15.02.2023 23:20 5,4 C 4,4 C 1,1 C 87 % 1025,6 hPa 0,0 l/m 0 min 0 min 0 W/m 3,2 km/h (1 Bft) 68,09 %
15.02.2023 23:22 5,3 C 4,4 C 1,1 C 87 % 1025,5 hPa 0,0 l/m 0 min 0 min 0 W/m 6,4 km/h (2 Bft) 89,36 %
15.02.2023 23:24 5,3 C 4,4 C 1,1 C 87 % 1025,6 hPa 0,0 l/m 0 min 0 min 0 W/m 6,4 km/h (2 Bft) 100,00 %
15.02.2023 23:26 5,3 C 4,4 C 1,1 C 87 % 1025,6 hPa 0,0 l/m 0 min 0 min 0 W/m 12,9 km/h (3 Bft) 89,58 %
15.02.2023 23:28 5,3 C 4,4 C 1,1 C 87 % 1025,6 hPa 0,0 l/m 0 min 0 min 0 W/m 6,4 km/h (2 Bft) 76,60 %
15.02.2023 23:30 5,2 C 4,4 C 1,1 C 87 % 1025,6 hPa 0,0 l/m 0 min 0 min 0 W/m 6,4 km/h (2 Bft) 79,17 %
15.02.2023 23:32 5,2 C 4,4 C 1,1 C 87 % 1025,6 hPa 0,0 l/m 0 min 0 min 0 W/m 6,4 km/h (2 Bft) 80,85 %
15.02.2023 23:34 5,2 C 4,4 C 1,1 C 87 % 1025,6 hPa 0,0 l/m 0 min 0 min 0 W/m 6,4 km/h (2 Bft) 61,70 %
15.02.2023 23:36 5,2 C 4,4 C 1,1 C 87 % 1025,5 hPa 0,0 l/m 0 min 0 min 0 W/m 6,4 km/h (2 Bft) 68,09 %
15.02.2023 23:38 5,1 C 4,4 C 1,1 C 87 % 1025,5 hPa 0,0 l/m 0 min 0 min 0 W/m 6,4 km/h (2 Bft) 76,09 %
15.02.2023 23:40 5,1 C 4,4 C 1,1 C 87 % 1025,6 hPa 0,0 l/m 0 min 0 min 0 W/m 6,4 km/h (2 Bft) 91,49 %
15.02.2023 23:42 5,1 C 4,4 C 1,1 C 87 % 1025,6 hPa 0,0 l/m 0 min 0 min 0 W/m 6,4 km/h (2 Bft) 64,81 %
15.02.2023 23:44 5,1 C 4,4 C 1,1 C 87 % 1025,5 hPa 0,0 l/m 0 min 0 min 0 W/m 6,4 km/h (2 Bft) 82,61 %
15.02.2023 23:46 5,1 C 4,4 C 1,1 C 88 % 1025,5 hPa 0,0 l/m 0 min 0 min 0 W/m 12,9 km/h (3 Bft) 78,72 %
15.02.2023 23:48 5,1 C 4,4 C 1,1 C 88 % 1025,5 hPa 0,0 l/m 0 min 0 min 0 W/m 12,9 km/h (3 Bft) 63,83 %
15.02.2023 23:50 5,1 C 4,4 C 1,1 C 88 % 1025,5 hPa 0,0 l/m 0 min 0 min 0 W/m 12,9 km/h (3 Bft) 61,70 %
15.02.2023 23:52 5,0 C 4,4 C 1,1 C 88 % 1025,6 hPa 0,0 l/m 0 min 0 min 0 W/m 9,7 km/h (2 Bft) 66,00 %
15.02.2023 23:54 5,0 C 3,9 C 1,1 C 88 % 1025,6 hPa 0,0 l/m 0 min 0 min 0 W/m 12,9 km/h (3 Bft) 72,34 %
15.02.2023 23:56 5,0 C 3,9 C 0,6 C 88 % 1025,5 hPa 0,0 l/m 0 min 0 min 0 W/m 12,9 km/h (3 Bft) 80,00 %
15.02.2023 23:58 4,9 C 3,9 C 0,6 C 88 % 1025,6 hPa 0,0 l/m 0 min 0 min 0 W/m 12,9 km/h (3 Bft) 77,55 %
_ Min-Zeit 07:16 06:36 06:54 14:54 17:54 - - - - 15:10 15:10
Minimum _ 0,8 C 0,0 C -2,8 C 64 % 1024,6 hPa - - - - 0,0 km/h (0 Bft) 4,76 %
_ Max-Zeit 15:16 13:40 14:52 08:38 00:02 00:00 08:50 00:00 14:00 07:32 00:18
Maximum _ 12,7 C 18,9 C 7,2 C 95 % 1030,2 hPa 0,0 l/m 2 min 0 min 470 W/m 25,7 km/h
S-SO (4 Bft)
100,00 %
Durchschnitt _ 5,8 C 6,2 C 1,7 C 84 % 1026,9 hPa #0,0 l/m #6:16 h #0 min. 217 W/m 11,5 km/h (2 Bft) 91,13 %
© 2023 W. Hausmann